PWSweather.com
Personal Weather Stations
Station Observations
EI4HQ
Cork Harbour, CobhIE

Cork HarbourCobhIE

Lat: 51.85, Lon: -8.29

Elevation: 252

Station Type: Davis Vantage Pro2

http://www.corkharbourweather.ie

High Low Average
Temperature 52.3°F11.3°C 35.8°F2.1°C 42.5°F5.8°C
Dew Point 50.5°F10.3°C 32.7°F0.4°C 39.4°F4.1°C
Winds 20.0 mph 32.2 kmh 2.0 mph 3.2 kmh 9.0 mph WSW14.5 kmh WSW
Wind Gusts 39.0 mph62.8 kmh 4.0 mph6.4 kmh 19.0 mph30.6 kmh
Humidity 96% 76% 89%
Pressure 29.89 in1012.2 mb 29.39 in995.3 mb -
Precipitation 0.28 in7.1 mm - -
Hour Temp Dew Point Humidity Winds Wind Gusts Pressure Precip Precip Rate Daily Precip Total
12:00 AM 35.8°F2.1°C 33.6°F0.9°C 92% 9.0 mph W14.5 kmh W 23.0 mph37.0 kmh 29.61 in1002.7 mb 0.02 in0.5 mm 0.00 in0.0 mm 0.02 in0.5 mm
12:03 AM 35.8°F2.1°C 33.4°F0.8°C 91% 9.0 mph W14.5 kmh W 23.0 mph37.0 kmh 29.62 in1003.0 mb 0.02 in0.5 mm 0.00 in0.0 mm 0.02 in0.5 mm
12:06 AM 35.8°F2.1°C 33.4°F0.8°C 91% 10.0 mph W16.1 kmh W 23.0 mph37.0 kmh 29.62 in1003.0 mb 0.02 in0.5 mm 0.00 in0.0 mm 0.02 in0.5 mm
12:09 AM 36.0°F2.2°C 33.4°F0.8°C 91% 10.0 mph W16.1 kmh W 22.0 mph35.4 kmh 29.62 in1003.0 mb 0.02 in0.5 mm 0.00 in0.0 mm 0.02 in0.5 mm
12:12 AM 36.0°F2.2°C 33.4°F0.8°C 91% 10.0 mph W16.1 kmh W 22.0 mph35.4 kmh 29.62 in1003.0 mb 0.02 in0.5 mm 0.00 in0.0 mm 0.02 in0.5 mm
12:15 AM 36.0°F2.2°C 33.4°F0.8°C 91% 10.0 mph W16.1 kmh W 19.0 mph30.6 kmh 29.63 in1003.4 mb 0.03 in0.8 mm 0.20 in5.1 mm 0.01 in0.3 mm
12:18 AM 36.0°F2.2°C 33.4°F0.8°C 91% 10.0 mph W16.1 kmh W 19.0 mph30.6 kmh 29.63 in1003.4 mb 0.03 in0.8 mm 0.00 in0.0 mm 0.01 in0.3 mm
12:21 AM 36.0°F2.2°C 33.3°F0.7°C 90% 10.0 mph W16.1 kmh W 28.0 mph45.1 kmh 29.63 in1003.4 mb 0.03 in0.8 mm 0.00 in0.0 mm 0.01 in0.3 mm
12:24 AM 36.0°F2.2°C 33.4°F0.8°C 90% 11.0 mph W17.7 kmh W 28.0 mph45.1 kmh 29.63 in1003.4 mb 0.02 in0.5 mm 0.00 in0.0 mm 0.01 in0.3 mm
12:27 AM 36.0°F2.2°C 33.4°F0.8°C 90% 11.0 mph WNW17.7 kmh WNW 28.0 mph45.1 kmh 29.63 in1003.4 mb 0.02 in0.5 mm 0.00 in0.0 mm 0.01 in0.3 mm
12:30 AM 36.1°F2.3°C 33.4°F0.8°C 90% 11.0 mph WNW17.7 kmh WNW 28.0 mph45.1 kmh 29.64 in1003.7 mb 0.02 in0.5 mm 0.00 in0.0 mm 0.01 in0.3 mm
12:33 AM 36.0°F2.2°C 33.4°F0.8°C 90% 10.0 mph WNW16.1 kmh WNW 21.0 mph33.8 kmh 29.64 in1003.7 mb 0.03 in0.8 mm 0.20 in5.1 mm 0.02 in0.5 mm
12:36 AM 36.0°F2.2°C 33.4°F0.8°C 90% 9.0 mph WNW14.5 kmh WNW 20.0 mph32.2 kmh 29.64 in1003.7 mb 0.03 in0.8 mm 0.00 in0.0 mm 0.02 in0.5 mm
12:39 AM 36.0°F2.2°C 33.3°F0.7°C 90% 9.0 mph WNW14.5 kmh WNW 19.0 mph30.6 kmh 29.64 in1003.7 mb 0.02 in0.5 mm 0.00 in0.0 mm 0.02 in0.5 mm
12:42 AM 35.8°F2.1°C 33.1°F0.6°C 90% 9.0 mph W14.5 kmh W 19.0 mph30.6 kmh 29.64 in1003.7 mb 0.02 in0.5 mm 0.00 in0.0 mm 0.02 in0.5 mm
12:45 AM 35.8°F2.1°C 33.1°F0.6°C 90% 9.0 mph W14.5 kmh W 17.0 mph27.4 kmh 29.64 in1003.7 mb 0.02 in0.5 mm 0.00 in0.0 mm 0.02 in0.5 mm
12:48 AM 35.8°F2.1°C 33.1°F0.6°C 90% 8.0 mph W12.9 kmh W 17.0 mph27.4 kmh 29.64 in1003.7 mb 0.02 in0.5 mm 0.00 in0.0 mm 0.02 in0.5 mm
12:51 AM 35.8°F2.1°C 33.1°F0.6°C 90% 9.0 mph W14.5 kmh W 25.0 mph40.2 kmh 29.64 in1003.7 mb 0.02 in0.5 mm 0.00 in0.0 mm 0.02 in0.5 mm
12:54 AM 35.8°F2.1°C 33.1°F0.6°C 90% 9.0 mph W14.5 kmh W 25.0 mph40.2 kmh 29.64 in1003.7 mb 0.02 in0.5 mm 0.00 in0.0 mm 0.02 in0.5 mm
12:57 AM 36.0°F2.2°C 33.3°F0.7°C 90% 9.0 mph W14.5 kmh W 25.0 mph40.2 kmh 29.64 in1003.7 mb 0.02 in0.5 mm 0.00 in0.0 mm 0.02 in0.5 mm
01:00 AM 36.1°F2.3°C 33.3°F0.7°C 89% 10.0 mph W16.1 kmh W 22.0 mph35.4 kmh 29.64 in1003.7 mb 0.02 in0.5 mm 0.00 in0.0 mm 0.02 in0.5 mm
01:03 AM 36.1°F2.3°C 33.3°F0.7°C 89% 10.0 mph W16.1 kmh W 22.0 mph35.4 kmh 29.65 in1004.1 mb 0.02 in0.5 mm 0.00 in0.0 mm 0.02 in0.5 mm
01:06 AM 36.1°F2.3°C 33.3°F0.7°C 89% 10.0 mph W16.1 kmh W 22.0 mph35.4 kmh 29.65 in1004.1 mb 0.02 in0.5 mm 0.00 in0.0 mm 0.02 in0.5 mm
01:09 AM 36.1°F2.3°C 33.3°F0.7°C 89% 10.0 mph W16.1 kmh W 20.0 mph32.2 kmh 29.65 in1004.1 mb 0.02 in0.5 mm 0.00 in0.0 mm 0.02 in0.5 mm
01:12 AM 36.3°F2.4°C 33.4°F0.8°C 89% 11.0 mph WNW17.7 kmh WNW 21.0 mph33.8 kmh 29.65 in1004.1 mb 0.02 in0.5 mm 0.00 in0.0 mm 0.02 in0.5 mm
01:15 AM 36.3°F2.4°C 33.1°F0.6°C 88% 10.0 mph W16.1 kmh W 21.0 mph33.8 kmh 29.66 in1004.4 mb 0.01 in0.3 mm 0.00 in0.0 mm 0.02 in0.5 mm
01:18 AM 36.3°F2.4°C 33.3°F0.7°C 88% 10.0 mph W16.1 kmh W 21.0 mph33.8 kmh 29.66 in1004.4 mb 0.01 in0.3 mm 0.00 in0.0 mm 0.02 in0.5 mm
01:21 AM 36.3°F2.4°C 32.9°F0.5°C 87% 9.0 mph W14.5 kmh W 21.0 mph33.8 kmh 29.66 in1004.4 mb 0.01 in0.3 mm 0.00 in0.0 mm 0.02 in0.5 mm
01:24 AM 36.3°F2.4°C 32.7°F0.4°C 87% 10.0 mph W16.1 kmh W 19.0 mph30.6 kmh 29.67 in1004.7 mb 0.01 in0.3 mm 0.00 in0.0 mm 0.02 in0.5 mm
01:27 AM 36.1°F2.3°C 32.9°F0.5°C 88% 10.0 mph W16.1 kmh W 19.0 mph30.6 kmh 29.67 in1004.7 mb 0.01 in0.3 mm 0.00 in0.0 mm 0.02 in0.5 mm
01:30 AM 36.1°F2.3°C 32.9°F0.5°C 88% 10.0 mph W16.1 kmh W 19.0 mph30.6 kmh 29.67 in1004.7 mb 0.01 in0.3 mm 0.00 in0.0 mm 0.02 in0.5 mm
01:33 AM 36.0°F2.2°C 32.7°F0.4°C 88% 10.0 mph W16.1 kmh W 19.0 mph30.6 kmh 29.68 in1005.1 mb 0.00 in0.0 mm 0.00 in0.0 mm 0.02 in0.5 mm
01:36 AM 36.0°F2.2°C 32.7°F0.4°C 88% 9.0 mph WNW14.5 kmh WNW 19.0 mph30.6 kmh 29.68 in1005.1 mb 0.00 in0.0 mm 0.00 in0.0 mm 0.02 in0.5 mm
01:39 AM 36.0°F2.2°C 32.7°F0.4°C 88% 8.0 mph WNW12.9 kmh WNW 19.0 mph30.6 kmh 29.69 in1005.4 mb 0.00 in0.0 mm 0.00 in0.0 mm 0.02 in0.5 mm
01:42 AM 36.0°F2.2°C 32.9°F0.5°C 89% 8.0 mph WNW12.9 kmh WNW 16.0 mph25.7 kmh 29.68 in1005.1 mb 0.01 in0.3 mm 0.20 in5.1 mm 0.02 in0.5 mm
01:45 AM 36.0°F2.2°C 32.9°F0.5°C 89% 9.0 mph WNW14.5 kmh WNW 16.0 mph25.7 kmh 29.69 in1005.4 mb 0.01 in0.3 mm 0.00 in0.0 mm 0.02 in0.5 mm
01:48 AM 36.0°F2.2°C 33.1°F0.6°C 89% 9.0 mph WNW14.5 kmh WNW 21.0 mph33.8 kmh 29.70 in1005.8 mb 0.01 in0.3 mm 0.00 in0.0 mm 0.02 in0.5 mm
01:51 AM 36.1°F2.3°C 33.3°F0.7°C 89% 9.0 mph WNW14.5 kmh WNW 21.0 mph33.8 kmh 29.69 in1005.4 mb 0.01 in0.3 mm 0.00 in0.0 mm 0.02 in0.5 mm
01:54 AM 36.1°F2.3°C 33.3°F0.7°C 89% 9.0 mph WNW14.5 kmh WNW 21.0 mph33.8 kmh 29.69 in1005.4 mb 0.01 in0.3 mm 0.00 in0.0 mm 0.02 in0.5 mm
01:57 AM 36.1°F2.3°C 33.3°F0.7°C 89% 8.0 mph WNW12.9 kmh WNW 21.0 mph33.8 kmh 29.69 in1005.4 mb 0.01 in0.3 mm 0.00 in0.0 mm 0.02 in0.5 mm
02:00 AM 36.1°F2.3°C 33.3°F0.7°C 89% 7.0 mph WNW11.3 kmh WNW 19.0 mph30.6 kmh 29.70 in1005.8 mb 0.01 in0.3 mm 0.00 in0.0 mm 0.02 in0.5 mm
02:03 AM 36.1°F2.3°C 33.3°F0.7°C 89% 7.0 mph WNW11.3 kmh WNW 19.0 mph30.6 kmh 29.70 in1005.8 mb 0.01 in0.3 mm 0.00 in0.0 mm 0.02 in0.5 mm
02:06 AM 36.3°F2.4°C 33.4°F0.8°C 89% 7.0 mph WNW11.3 kmh WNW 16.0 mph25.7 kmh 29.70 in1005.8 mb 0.01 in0.3 mm 0.00 in0.0 mm 0.02 in0.5 mm
02:09 AM 36.3°F2.4°C 33.4°F0.8°C 89% 7.0 mph WNW11.3 kmh WNW 15.0 mph24.1 kmh 29.70 in1005.8 mb 0.02 in0.5 mm 0.20 in5.1 mm 0.03 in0.8 mm
02:12 AM 36.3°F2.4°C 33.4°F0.8°C 89% 7.0 mph WNW11.3 kmh WNW 16.0 mph25.7 kmh 29.70 in1005.8 mb 0.02 in0.5 mm 0.00 in0.0 mm 0.03 in0.8 mm
02:15 AM 36.3°F2.4°C 33.4°F0.8°C 89% 7.0 mph WNW11.3 kmh WNW 16.0 mph25.7 kmh 29.70 in1005.8 mb 0.02 in0.5 mm 0.00 in0.0 mm 0.03 in0.8 mm
02:18 AM 36.3°F2.4°C 33.4°F0.8°C 89% 7.0 mph WNW11.3 kmh WNW 16.0 mph25.7 kmh 29.70 in1005.8 mb 0.02 in0.5 mm 0.00 in0.0 mm 0.03 in0.8 mm
02:21 AM 36.3°F2.4°C 33.4°F0.8°C 89% 6.0 mph WNW9.7 kmh WNW 13.0 mph20.9 kmh 29.71 in1006.1 mb 0.02 in0.5 mm 0.00 in0.0 mm 0.03 in0.8 mm
02:24 AM 36.3°F2.4°C 33.4°F0.8°C 89% 7.0 mph WNW11.3 kmh WNW 13.0 mph20.9 kmh 29.71 in1006.1 mb 0.02 in0.5 mm 0.00 in0.0 mm 0.03 in0.8 mm
02:27 AM 36.3°F2.4°C 33.4°F0.8°C 89% 7.0 mph W11.3 kmh W 13.0 mph20.9 kmh 29.71 in1006.1 mb 0.02 in0.5 mm 0.00 in0.0 mm 0.03 in0.8 mm
02:30 AM 36.1°F2.3°C 33.3°F0.7°C 89% 7.0 mph W11.3 kmh W 13.0 mph20.9 kmh 29.71 in1006.1 mb 0.02 in0.5 mm 0.00 in0.0 mm 0.03 in0.8 mm
02:33 AM 36.1°F2.3°C 33.3°F0.7°C 89% 7.0 mph W11.3 kmh W 15.0 mph24.1 kmh 29.71 in1006.1 mb 0.02 in0.5 mm 0.00 in0.0 mm 0.03 in0.8 mm
02:36 AM 36.1°F2.3°C 33.3°F0.7°C 89% 7.0 mph W11.3 kmh W 15.0 mph24.1 kmh 29.71 in1006.1 mb 0.02 in0.5 mm 0.00 in0.0 mm 0.03 in0.8 mm
02:39 AM 36.3°F2.4°C 33.4°F0.8°C 89% 7.0 mph W11.3 kmh W 15.0 mph24.1 kmh 29.72 in1006.4 mb 0.02 in0.5 mm 0.00 in0.0 mm 0.03 in0.8 mm
02:42 AM 36.3°F2.4°C 33.4°F0.8°C 89% 8.0 mph W12.9 kmh W 18.0 mph29.0 kmh 29.72 in1006.4 mb 0.01 in0.3 mm 0.00 in0.0 mm 0.03 in0.8 mm
02:45 AM 36.5°F2.5°C 33.6°F0.9°C 89% 9.0 mph W14.5 kmh W 18.0 mph29.0 kmh 29.72 in1006.4 mb 0.01 in0.3 mm 0.00 in0.0 mm 0.03 in0.8 mm
02:48 AM 36.7°F2.6°C 33.4°F0.8°C 88% 10.0 mph W16.1 kmh W 18.0 mph29.0 kmh 29.72 in1006.4 mb 0.01 in0.3 mm 0.00 in0.0 mm 0.03 in0.8 mm
02:51 AM 36.9°F2.7°C 33.6°F0.9°C 88% 10.0 mph W16.1 kmh W 19.0 mph30.6 kmh 29.72 in1006.4 mb 0.01 in0.3 mm 0.00 in0.0 mm 0.03 in0.8 mm
02:54 AM 36.9°F2.7°C 33.6°F0.9°C 88% 10.0 mph WNW16.1 kmh WNW 19.0 mph30.6 kmh 29.72 in1006.4 mb 0.01 in0.3 mm 0.00 in0.0 mm 0.03 in0.8 mm
02:57 AM 37.2°F2.9°C 33.6°F0.9°C 87% 10.0 mph WNW16.1 kmh WNW 22.0 mph35.4 kmh 29.72 in1006.4 mb 0.01 in0.3 mm 0.00 in0.0 mm 0.03 in0.8 mm
03:00 AM 37.6°F3.1°C 33.6°F0.9°C 86% 10.0 mph WNW16.1 kmh WNW 22.0 mph35.4 kmh 29.72 in1006.4 mb 0.01 in0.3 mm 0.00 in0.0 mm 0.03 in0.8 mm
03:03 AM 37.8°F3.2°C 33.6°F0.9°C 85% 11.0 mph WNW17.7 kmh WNW 22.0 mph35.4 kmh 29.73 in1006.8 mb 0.01 in0.3 mm 0.00 in0.0 mm 0.03 in0.8 mm
03:06 AM 37.8°F3.2°C 33.6°F0.9°C 85% 10.0 mph WNW16.1 kmh WNW 22.0 mph35.4 kmh 29.73 in1006.8 mb 0.01 in0.3 mm 0.00 in0.0 mm 0.03 in0.8 mm
03:09 AM 37.8°F3.2°C 33.4°F0.8°C 84% 10.0 mph WNW16.1 kmh WNW 22.0 mph35.4 kmh 29.73 in1006.8 mb 0.00 in0.0 mm 0.00 in0.0 mm 0.03 in0.8 mm
03:12 AM 37.8°F3.2°C 33.3°F0.7°C 84% 9.0 mph W14.5 kmh W 17.0 mph27.4 kmh 29.73 in1006.8 mb 0.01 in0.3 mm 0.20 in5.1 mm 0.04 in1.0 mm
03:15 AM 37.6°F3.1°C 33.4°F0.8°C 85% 9.0 mph W14.5 kmh W 17.0 mph27.4 kmh 29.73 in1006.8 mb 0.01 in0.3 mm 0.00 in0.0 mm 0.04 in1.0 mm
03:18 AM 37.6°F3.1°C 33.3°F0.7°C 84% 9.0 mph W14.5 kmh W 17.0 mph27.4 kmh 29.74 in1007.1 mb 0.01 in0.3 mm 0.00 in0.0 mm 0.04 in1.0 mm
03:21 AM 37.6°F3.1°C 33.3°F0.7°C 84% 10.0 mph W16.1 kmh W 19.0 mph30.6 kmh 29.73 in1006.8 mb 0.01 in0.3 mm 0.00 in0.0 mm 0.04 in1.0 mm
03:24 AM 37.8°F3.2°C 33.4°F0.8°C 84% 9.0 mph W14.5 kmh W 19.0 mph30.6 kmh 29.73 in1006.8 mb 0.01 in0.3 mm 0.00 in0.0 mm 0.04 in1.0 mm
03:27 AM 37.8°F3.2°C 33.1°F0.6°C 83% 8.0 mph W12.9 kmh W 19.0 mph30.6 kmh 29.74 in1007.1 mb 0.01 in0.3 mm 0.00 in0.0 mm 0.04 in1.0 mm
03:30 AM 37.8°F3.2°C 33.1°F0.6°C 83% 8.0 mph W12.9 kmh W 15.0 mph24.1 kmh 29.74 in1007.1 mb 0.01 in0.3 mm 0.00 in0.0 mm 0.04 in1.0 mm
03:33 AM 37.8°F3.2°C 33.1°F0.6°C 83% 8.0 mph W12.9 kmh W 15.0 mph24.1 kmh 29.74 in1007.1 mb 0.01 in0.3 mm 0.00 in0.0 mm 0.04 in1.0 mm
03:36 AM 37.8°F3.2°C 32.7°F0.4°C 82% 9.0 mph W14.5 kmh W 18.0 mph29.0 kmh 29.74 in1007.1 mb 0.01 in0.3 mm 0.00 in0.0 mm 0.04 in1.0 mm
03:39 AM 37.9°F3.3°C 32.9°F0.5°C 82% 9.0 mph WNW14.5 kmh WNW 18.0 mph29.0 kmh 29.74 in1007.1 mb 0.01 in0.3 mm 0.00 in0.0 mm 0.04 in1.0 mm
03:42 AM 37.9°F3.3°C 32.7°F0.4°C 81% 9.0 mph WNW14.5 kmh WNW 19.0 mph30.6 kmh 29.74 in1007.1 mb 0.01 in0.3 mm 0.00 in0.0 mm 0.04 in1.0 mm
03:45 AM 38.1°F3.4°C 32.7°F0.4°C 81% 10.0 mph WNW16.1 kmh WNW 21.0 mph33.8 kmh 29.74 in1007.1 mb 0.01 in0.3 mm 0.00 in0.0 mm 0.04 in1.0 mm
03:48 AM 38.1°F3.4°C 32.9°F0.5°C 81% 10.0 mph W16.1 kmh W 21.0 mph33.8 kmh 29.74 in1007.1 mb 0.01 in0.3 mm 0.00 in0.0 mm 0.04 in1.0 mm
03:51 AM 38.1°F3.4°C 32.9°F0.5°C 81% 10.0 mph W16.1 kmh W 21.0 mph33.8 kmh 29.75 in1007.5 mb 0.01 in0.3 mm 0.00 in0.0 mm 0.04 in1.0 mm
03:54 AM 38.1°F3.4°C 32.9°F0.5°C 81% 9.0 mph W14.5 kmh W 21.0 mph33.8 kmh 29.75 in1007.5 mb 0.01 in0.3 mm 0.00 in0.0 mm 0.04 in1.0 mm
03:57 AM 38.1°F3.4°C 32.7°F0.4°C 81% 8.0 mph W12.9 kmh W 19.0 mph30.6 kmh 29.75 in1007.5 mb 0.01 in0.3 mm 0.00 in0.0 mm 0.04 in1.0 mm
04:00 AM 38.1°F3.4°C 32.7°F0.4°C 81% 9.0 mph W14.5 kmh W 23.0 mph37.0 kmh 29.75 in1007.5 mb 0.01 in0.3 mm 0.00 in0.0 mm 0.04 in1.0 mm
04:03 AM 38.1°F3.4°C 32.9°F0.5°C 81% 8.0 mph W12.9 kmh W 23.0 mph37.0 kmh 29.74 in1007.1 mb 0.01 in0.3 mm 0.00 in0.0 mm 0.04 in1.0 mm
04:06 AM 38.3°F3.5°C 32.9°F0.5°C 81% 9.0 mph W14.5 kmh W 23.0 mph37.0 kmh 29.75 in1007.5 mb 0.01 in0.3 mm 0.00 in0.0 mm 0.04 in1.0 mm
04:09 AM 38.5°F3.6°C 32.7°F0.4°C 80% 10.0 mph W16.1 kmh W 23.0 mph37.0 kmh 29.75 in1007.5 mb 0.00 in0.0 mm 0.00 in0.0 mm 0.04 in1.0 mm
04:12 AM 38.5°F3.6°C 32.7°F0.4°C 80% 10.0 mph W16.1 kmh W 19.0 mph30.6 kmh 29.75 in1007.5 mb 0.00 in0.0 mm 0.00 in0.0 mm 0.04 in1.0 mm
04:15 AM 38.5°F3.6°C 32.9°F0.5°C 80% 10.0 mph W16.1 kmh W 20.0 mph32.2 kmh 29.75 in1007.5 mb 0.00 in0.0 mm 0.00 in0.0 mm 0.04 in1.0 mm
04:18 AM 38.7°F3.7°C 32.9°F0.5°C 80% 10.0 mph W16.1 kmh W 20.0 mph32.2 kmh 29.76 in1007.8 mb 0.00 in0.0 mm 0.00 in0.0 mm 0.04 in1.0 mm
04:21 AM 38.7°F3.7°C 33.4°F0.8°C 81% 10.0 mph W16.1 kmh W 20.0 mph32.2 kmh 29.76 in1007.8 mb 0.00 in0.0 mm 0.00 in0.0 mm 0.04 in1.0 mm
04:24 AM 38.8°F3.8°C 33.8°F1.0°C 82% 11.0 mph W17.7 kmh W 28.0 mph45.1 kmh 29.75 in1007.5 mb 0.00 in0.0 mm 0.00 in0.0 mm 0.04 in1.0 mm
04:27 AM 38.7°F3.7°C 34.0°F1.1°C 83% 13.0 mph W20.9 kmh W 29.0 mph46.7 kmh 29.76 in1007.8 mb 0.01 in0.3 mm 0.20 in5.1 mm 0.05 in1.3 mm
04:30 AM 38.7°F3.7°C 34.3°F1.3°C 84% 13.0 mph WNW20.9 kmh WNW 29.0 mph46.7 kmh 29.76 in1007.8 mb 0.01 in0.3 mm 0.00 in0.0 mm 0.05 in1.3 mm
04:33 AM 38.7°F3.7°C 34.5°F1.4°C 85% 13.0 mph WNW20.9 kmh WNW 29.0 mph46.7 kmh 29.76 in1007.8 mb 0.02 in0.5 mm 0.20 in5.1 mm 0.06 in1.5 mm
04:36 AM 38.5°F3.6°C 34.7°F1.5°C 86% 12.0 mph WNW19.3 kmh WNW 23.0 mph37.0 kmh 29.77 in1008.1 mb 0.02 in0.5 mm 0.00 in0.0 mm 0.06 in1.5 mm
04:42 AM 37.9°F3.3°C 34.5°F1.4°C 87% 11.0 mph WNW17.7 kmh WNW 23.0 mph37.0 kmh 29.77 in1008.1 mb 0.02 in0.5 mm 0.00 in0.0 mm 0.06 in1.5 mm
04:45 AM 37.8°F3.2°C 34.3°F1.3°C 87% 10.0 mph W16.1 kmh W 20.0 mph32.2 kmh 29.77 in1008.1 mb 0.02 in0.5 mm 0.00 in0.0 mm 0.06 in1.5 mm
04:48 AM 37.6°F3.1°C 34.3°F1.3°C 88% 9.0 mph W14.5 kmh W 20.0 mph32.2 kmh 29.77 in1008.1 mb 0.02 in0.5 mm 0.00 in0.0 mm 0.06 in1.5 mm
04:51 AM 37.6°F3.1°C 34.3°F1.3°C 88% 8.0 mph W12.9 kmh W 18.0 mph29.0 kmh 29.77 in1008.1 mb 0.02 in0.5 mm 0.00 in0.0 mm 0.06 in1.5 mm
04:54 AM 37.4°F3.0°C 34.2°F1.2°C 88% 7.0 mph W11.3 kmh W 17.0 mph27.4 kmh 29.77 in1008.1 mb 0.02 in0.5 mm 0.00 in0.0 mm 0.06 in1.5 mm
04:57 AM 37.4°F3.0°C 34.2°F1.2°C 88% 7.0 mph W11.3 kmh W 17.0 mph27.4 kmh 29.78 in1008.5 mb 0.02 in0.5 mm 0.00 in0.0 mm 0.06 in1.5 mm
05:00 AM 37.4°F3.0°C 34.5°F1.4°C 89% 7.0 mph W11.3 kmh W 15.0 mph24.1 kmh 29.78 in1008.5 mb 0.02 in0.5 mm 0.00 in0.0 mm 0.06 in1.5 mm
05:03 AM 37.4°F3.0°C 34.5°F1.4°C 89% 7.0 mph W11.3 kmh W 15.0 mph24.1 kmh 29.78 in1008.5 mb 0.02 in0.5 mm 0.00 in0.0 mm 0.06 in1.5 mm
05:06 AM 37.4°F3.0°C 34.5°F1.4°C 89% 7.0 mph W11.3 kmh W 15.0 mph24.1 kmh 29.78 in1008.5 mb 0.02 in0.5 mm 0.00 in0.0 mm 0.06 in1.5 mm
05:09 AM 37.4°F3.0°C 34.5°F1.4°C 89% 8.0 mph W12.9 kmh W 17.0 mph27.4 kmh 29.78 in1008.5 mb 0.02 in0.5 mm 0.00 in0.0 mm 0.06 in1.5 mm
05:12 AM 37.4°F3.0°C 34.5°F1.4°C 89% 9.0 mph W14.5 kmh W 24.0 mph38.6 kmh 29.78 in1008.5 mb 0.02 in0.5 mm 0.00 in0.0 mm 0.06 in1.5 mm
05:15 AM 37.6°F3.1°C 34.5°F1.4°C 89% 10.0 mph W16.1 kmh W 24.0 mph38.6 kmh 29.79 in1008.8 mb 0.02 in0.5 mm 0.00 in0.0 mm 0.06 in1.5 mm
05:18 AM 37.6°F3.1°C 34.3°F1.3°C 88% 10.0 mph W16.1 kmh W 24.0 mph38.6 kmh 29.79 in1008.8 mb 0.02 in0.5 mm 0.00 in0.0 mm 0.06 in1.5 mm
05:21 AM 37.6°F3.1°C 34.3°F1.3°C 88% 9.0 mph W14.5 kmh W 24.0 mph38.6 kmh 29.80 in1009.1 mb 0.02 in0.5 mm 0.00 in0.0 mm 0.06 in1.5 mm
05:24 AM 37.8°F3.2°C 34.7°F1.5°C 89% 8.0 mph W12.9 kmh W 20.0 mph32.2 kmh 29.79 in1008.8 mb 0.02 in0.5 mm 0.00 in0.0 mm 0.06 in1.5 mm
05:27 AM 37.8°F3.2°C 34.7°F1.5°C 89% 8.0 mph W12.9 kmh W 20.0 mph32.2 kmh 29.79 in1008.8 mb 0.02 in0.5 mm 0.00 in0.0 mm 0.06 in1.5 mm
05:30 AM 37.8°F3.2°C 34.7°F1.5°C 89% 9.0 mph W14.5 kmh W 30.0 mph48.3 kmh 29.80 in1009.1 mb 0.01 in0.3 mm 0.00 in0.0 mm 0.06 in1.5 mm
05:33 AM 37.8°F3.2°C 34.5°F1.4°C 88% 10.0 mph W16.1 kmh W 30.0 mph48.3 kmh 29.80 in1009.1 mb 0.01 in0.3 mm 0.00 in0.0 mm 0.06 in1.5 mm
05:36 AM 37.8°F3.2°C 34.5°F1.4°C 88% 11.0 mph WNW17.7 kmh WNW 30.0 mph48.3 kmh 29.80 in1009.1 mb 0.01 in0.3 mm 0.00 in0.0 mm 0.06 in1.5 mm
05:39 AM 37.8°F3.2°C 34.5°F1.4°C 88% 10.0 mph W16.1 kmh W 24.0 mph38.6 kmh 29.81 in1009.5 mb 0.01 in0.3 mm 0.00 in0.0 mm 0.06 in1.5 mm
05:42 AM 37.8°F3.2°C 34.5°F1.4°C 88% 7.0 mph W11.3 kmh W 18.0 mph29.0 kmh 29.80 in1009.1 mb 0.01 in0.3 mm 0.00 in0.0 mm 0.06 in1.5 mm
05:45 AM 37.6°F3.1°C 34.3°F1.3°C 88% 7.0 mph W11.3 kmh W 17.0 mph27.4 kmh 29.80 in1009.1 mb 0.01 in0.3 mm 0.00 in0.0 mm 0.06 in1.5 mm
05:48 AM 37.6°F3.1°C 34.5°F1.4°C 89% 6.0 mph W9.7 kmh W 17.0 mph27.4 kmh 29.80 in1009.1 mb 0.01 in0.3 mm 0.00 in0.0 mm 0.06 in1.5 mm
05:51 AM 37.6°F3.1°C 34.3°F1.3°C 88% 7.0 mph W11.3 kmh W 17.0 mph27.4 kmh 29.80 in1009.1 mb 0.01 in0.3 mm 0.00 in0.0 mm 0.06 in1.5 mm
05:54 AM 37.4°F3.0°C 34.5°F1.4°C 89% 6.0 mph W9.7 kmh W 12.0 mph19.3 kmh 29.81 in1009.5 mb 0.01 in0.3 mm 0.00 in0.0 mm 0.06 in1.5 mm
05:57 AM 37.4°F3.0°C 34.5°F1.4°C 89% 5.0 mph W8.0 kmh W 12.0 mph19.3 kmh 29.81 in1009.5 mb 0.01 in0.3 mm 0.00 in0.0 mm 0.06 in1.5 mm
06:00 AM 37.2°F2.9°C 34.3°F1.3°C 89% 5.0 mph W8.0 kmh W 12.0 mph19.3 kmh 29.81 in1009.5 mb 0.01 in0.3 mm 0.00 in0.0 mm 0.06 in1.5 mm
06:03 AM 37.2°F2.9°C 34.3°F1.3°C 89% 5.0 mph W8.0 kmh W 12.0 mph19.3 kmh 29.81 in1009.5 mb 0.02 in0.5 mm 0.20 in5.1 mm 0.07 in1.8 mm
06:06 AM 37.0°F2.8°C 34.2°F1.2°C 89% 5.0 mph WSW8.0 kmh WSW 12.0 mph19.3 kmh 29.81 in1009.5 mb 0.02 in0.5 mm 0.00 in0.0 mm 0.07 in1.8 mm
06:09 AM 37.0°F2.8°C 34.2°F1.2°C 89% 6.0 mph WSW9.7 kmh WSW 12.0 mph19.3 kmh 29.82 in1009.8 mb 0.02 in0.5 mm 0.00 in0.0 mm 0.07 in1.8 mm
06:12 AM 37.0°F2.8°C 34.5°F1.4°C 90% 6.0 mph WSW9.7 kmh WSW 12.0 mph19.3 kmh 29.82 in1009.8 mb 0.02 in0.5 mm 0.00 in0.0 mm 0.07 in1.8 mm
06:15 AM 37.0°F2.8°C 34.3°F1.3°C 90% 6.0 mph WSW9.7 kmh WSW 11.0 mph17.7 kmh 29.82 in1009.8 mb 0.02 in0.5 mm 0.00 in0.0 mm 0.07 in1.8 mm
06:18 AM 37.0°F2.8°C 34.3°F1.3°C 90% 6.0 mph W9.7 kmh W 11.0 mph17.7 kmh 29.83 in1010.2 mb 0.02 in0.5 mm 0.00 in0.0 mm 0.07 in1.8 mm
06:21 AM 37.0°F2.8°C 34.3°F1.3°C 90% 5.0 mph W8.0 kmh W 12.0 mph19.3 kmh 29.83 in1010.2 mb 0.02 in0.5 mm 0.00 in0.0 mm 0.08 in2.0 mm
06:24 AM 37.0°F2.8°C 34.3°F1.3°C 90% 5.0 mph W8.0 kmh W 14.0 mph22.5 kmh 29.82 in1009.8 mb 0.03 in0.8 mm 0.20 in5.1 mm 0.09 in2.3 mm
06:27 AM 37.0°F2.8°C 34.3°F1.3°C 90% 6.0 mph W9.7 kmh W 14.0 mph22.5 kmh 29.83 in1010.2 mb 0.03 in0.8 mm 0.00 in0.0 mm 0.09 in2.3 mm
06:30 AM 37.0°F2.8°C 34.3°F1.3°C 90% 6.0 mph WNW9.7 kmh WNW 14.0 mph22.5 kmh 29.83 in1010.2 mb 0.03 in0.8 mm 0.00 in0.0 mm 0.09 in2.3 mm
06:33 AM 36.9°F2.7°C 34.5°F1.4°C 91% 7.0 mph WNW11.3 kmh WNW 17.0 mph27.4 kmh 29.83 in1010.2 mb 0.03 in0.8 mm 0.00 in0.0 mm 0.09 in2.3 mm
06:36 AM 37.0°F2.8°C 34.7°F1.5°C 91% 7.0 mph WNW11.3 kmh WNW 17.0 mph27.4 kmh 29.83 in1010.2 mb 0.04 in1.0 mm 0.20 in5.1 mm 0.10 in2.5 mm
06:39 AM 36.9°F2.7°C 34.5°F1.4°C 91% 7.0 mph WNW11.3 kmh WNW 17.0 mph27.4 kmh 29.82 in1009.8 mb 0.04 in1.0 mm 0.00 in0.0 mm 0.10 in2.5 mm
06:42 AM 36.9°F2.7°C 34.3°F1.3°C 91% 7.0 mph WNW11.3 kmh WNW 15.0 mph24.1 kmh 29.82 in1009.8 mb 0.04 in1.0 mm 0.00 in0.0 mm 0.10 in2.5 mm
06:45 AM 36.7°F2.6°C 34.3°F1.3°C 91% 6.0 mph WNW9.7 kmh WNW 15.0 mph24.1 kmh 29.82 in1009.8 mb 0.04 in1.0 mm 0.00 in0.0 mm 0.10 in2.5 mm
06:48 AM 36.7°F2.6°C 34.2°F1.2°C 91% 5.0 mph WNW8.0 kmh WNW 14.0 mph22.5 kmh 29.82 in1009.8 mb 0.04 in1.0 mm 0.00 in0.0 mm 0.10 in2.5 mm
06:51 AM 36.5°F2.5°C 34.2°F1.2°C 91% 5.0 mph W8.0 kmh W 14.0 mph22.5 kmh 29.82 in1009.8 mb 0.04 in1.0 mm 0.00 in0.0 mm 0.10 in2.5 mm
06:54 AM 36.3°F2.4°C 34.0°F1.1°C 91% 5.0 mph W8.0 kmh W 14.0 mph22.5 kmh 29.82 in1009.8 mb 0.04 in1.0 mm 0.00 in0.0 mm 0.10 in2.5 mm
06:57 AM 36.5°F2.5°C 34.2°F1.2°C 91% 5.0 mph W8.0 kmh W 14.0 mph22.5 kmh 29.83 in1010.2 mb 0.04 in1.0 mm 0.00 in0.0 mm 0.10 in2.5 mm
07:00 AM 36.7°F2.6°C 34.5°F1.4°C 92% 5.0 mph W8.0 kmh W 12.0 mph19.3 kmh 29.83 in1010.2 mb 0.04 in1.0 mm 0.00 in0.0 mm 0.10 in2.5 mm
07:03 AM 36.7°F2.6°C 34.5°F1.4°C 92% 5.0 mph W8.0 kmh W 11.0 mph17.7 kmh 29.83 in1010.2 mb 0.03 in0.8 mm 0.00 in0.0 mm 0.10 in2.5 mm
07:06 AM 36.9°F2.7°C 34.7°F1.5°C 92% 5.0 mph W8.0 kmh W 11.0 mph17.7 kmh 29.84 in1010.5 mb 0.03 in0.8 mm 0.00 in0.0 mm 0.10 in2.5 mm
07:09 AM 36.9°F2.7°C 34.9°F1.6°C 92% 5.0 mph W8.0 kmh W 12.0 mph19.3 kmh 29.84 in1010.5 mb 0.03 in0.8 mm 0.00 in0.0 mm 0.10 in2.5 mm
07:12 AM 37.0°F2.8°C 34.9°F1.6°C 92% 5.0 mph W8.0 kmh W 12.0 mph19.3 kmh 29.84 in1010.5 mb 0.03 in0.8 mm 0.00 in0.0 mm 0.10 in2.5 mm
07:15 AM 37.0°F2.8°C 35.1°F1.7°C 92% 5.0 mph W8.0 kmh W 15.0 mph24.1 kmh 29.84 in1010.5 mb 0.03 in0.8 mm 0.00 in0.0 mm 0.10 in2.5 mm
07:18 AM 37.2°F2.9°C 35.1°F1.7°C 92% 5.0 mph W8.0 kmh W 15.0 mph24.1 kmh 29.84 in1010.5 mb 0.03 in0.8 mm 0.00 in0.0 mm 0.10 in2.5 mm
07:21 AM 37.2°F2.9°C 35.2°F1.8°C 92% 5.0 mph W8.0 kmh W 15.0 mph24.1 kmh 29.84 in1010.5 mb 0.02 in0.5 mm 0.00 in0.0 mm 0.10 in2.5 mm
07:24 AM 37.4°F3.0°C 35.2°F1.8°C 92% 6.0 mph W9.7 kmh W 15.0 mph24.1 kmh 29.84 in1010.5 mb 0.02 in0.5 mm 0.00 in0.0 mm 0.10 in2.5 mm
07:27 AM 37.6°F3.1°C 35.4°F1.9°C 92% 6.0 mph W9.7 kmh W 15.0 mph24.1 kmh 29.84 in1010.5 mb 0.02 in0.5 mm 0.00 in0.0 mm 0.11 in2.8 mm
07:30 AM 37.6°F3.1°C 35.4°F1.9°C 92% 7.0 mph W11.3 kmh W 15.0 mph24.1 kmh 29.84 in1010.5 mb 0.02 in0.5 mm 0.00 in0.0 mm 0.11 in2.8 mm
07:33 AM 37.4°F3.0°C 35.1°F1.7°C 91% 6.0 mph W9.7 kmh W 14.0 mph22.5 kmh 29.84 in1010.5 mb 0.02 in0.5 mm 0.00 in0.0 mm 0.11 in2.8 mm
07:36 AM 37.4°F3.0°C 35.1°F1.7°C 91% 6.0 mph W9.7 kmh W 12.0 mph19.3 kmh 29.84 in1010.5 mb 0.01 in0.3 mm 0.00 in0.0 mm 0.11 in2.8 mm
07:39 AM 37.2°F2.9°C 34.9°F1.6°C 91% 5.0 mph W8.0 kmh W 12.0 mph19.3 kmh 29.84 in1010.5 mb 0.01 in0.3 mm 0.00 in0.0 mm 0.11 in2.8 mm
07:42 AM 37.2°F2.9°C 34.9°F1.6°C 91% 5.0 mph WSW8.0 kmh WSW 12.0 mph19.3 kmh 29.84 in1010.5 mb 0.01 in0.3 mm 0.00 in0.0 mm 0.11 in2.8 mm
07:45 AM 37.0°F2.8°C 34.7°F1.5°C 91% 5.0 mph WSW8.0 kmh WSW 12.0 mph19.3 kmh 29.84 in1010.5 mb 0.01 in0.3 mm 0.00 in0.0 mm 0.11 in2.8 mm
07:48 AM 37.0°F2.8°C 34.7°F1.5°C 91% 5.0 mph WSW8.0 kmh WSW 12.0 mph19.3 kmh 29.84 in1010.5 mb 0.01 in0.3 mm 0.00 in0.0 mm 0.11 in2.8 mm
07:51 AM 36.9°F2.7°C 34.5°F1.4°C 91% 5.0 mph WSW8.0 kmh WSW 11.0 mph17.7 kmh 29.85 in1010.8 mb 0.01 in0.3 mm 0.00 in0.0 mm 0.11 in2.8 mm
07:54 AM 36.9°F2.7°C 34.3°F1.3°C 91% 5.0 mph WSW8.0 kmh WSW 11.0 mph17.7 kmh 29.85 in1010.8 mb 0.01 in0.3 mm 0.00 in0.0 mm 0.11 in2.8 mm
07:57 AM 36.7°F2.6°C 34.3°F1.3°C 91% 5.0 mph WSW8.0 kmh WSW 11.0 mph17.7 kmh 29.85 in1010.8 mb 0.01 in0.3 mm 0.00 in0.0 mm 0.11 in2.8 mm
08:00 AM 36.7°F2.6°C 34.2°F1.2°C 91% 5.0 mph WSW8.0 kmh WSW 11.0 mph17.7 kmh 29.85 in1010.8 mb 0.01 in0.3 mm 0.00 in0.0 mm 0.11 in2.8 mm
08:03 AM 36.5°F2.5°C 34.2°F1.2°C 91% 4.0 mph WSW6.4 kmh WSW 9.0 mph14.5 kmh 29.85 in1010.8 mb 0.01 in0.3 mm 0.00 in0.0 mm 0.11 in2.8 mm
08:06 AM 36.5°F2.5°C 34.2°F1.2°C 91% 4.0 mph W6.4 kmh W 9.0 mph14.5 kmh 29.85 in1010.8 mb 0.01 in0.3 mm 0.00 in0.0 mm 0.11 in2.8 mm
08:09 AM 36.7°F2.6°C 34.5°F1.4°C 92% 5.0 mph W8.0 kmh W 13.0 mph20.9 kmh 29.85 in1010.8 mb 0.01 in0.3 mm 0.00 in0.0 mm 0.11 in2.8 mm
08:12 AM 36.9°F2.7°C 34.9°F1.6°C 92% 6.0 mph W9.7 kmh W 15.0 mph24.1 kmh 29.85 in1010.8 mb 0.01 in0.3 mm 0.00 in0.0 mm 0.11 in2.8 mm
08:15 AM 37.0°F2.8°C 34.9°F1.6°C 92% 7.0 mph W11.3 kmh W 15.0 mph24.1 kmh 29.85 in1010.8 mb 0.01 in0.3 mm 0.00 in0.0 mm 0.11 in2.8 mm
08:18 AM 37.0°F2.8°C 34.7°F1.5°C 91% 6.0 mph WSW9.7 kmh WSW 15.0 mph24.1 kmh 29.85 in1010.8 mb 0.01 in0.3 mm 0.00 in0.0 mm 0.11 in2.8 mm
08:21 AM 36.9°F2.7°C 34.5°F1.4°C 91% 5.0 mph WSW8.0 kmh WSW 11.0 mph17.7 kmh 29.86 in1011.2 mb 0.01 in0.3 mm 0.00 in0.0 mm 0.11 in2.8 mm
08:24 AM 36.9°F2.7°C 34.3°F1.3°C 91% 5.0 mph WSW8.0 kmh WSW 10.0 mph16.1 kmh 29.86 in1011.2 mb 0.00 in0.0 mm 0.00 in0.0 mm 0.11 in2.8 mm
08:27 AM 36.7°F2.6°C 34.3°F1.3°C 91% 6.0 mph WSW9.7 kmh WSW 10.0 mph16.1 kmh 29.86 in1011.2 mb 0.00 in0.0 mm 0.00 in0.0 mm 0.11 in2.8 mm
08:30 AM 36.7°F2.6°C 34.3°F1.3°C 91% 6.0 mph WSW9.7 kmh WSW 10.0 mph16.1 kmh 29.86 in1011.2 mb 0.00 in0.0 mm 0.00 in0.0 mm 0.11 in2.8 mm
08:33 AM 36.9°F2.7°C 34.3°F1.3°C 91% 6.0 mph WSW9.7 kmh WSW 10.0 mph16.1 kmh 29.86 in1011.2 mb 0.00 in0.0 mm 0.00 in0.0 mm 0.11 in2.8 mm
08:36 AM 36.9°F2.7°C 34.3°F1.3°C 91% 6.0 mph WSW9.7 kmh WSW 10.0 mph16.1 kmh 29.86 in1011.2 mb 0.00 in0.0 mm 0.00 in0.0 mm 0.11 in2.8 mm
08:39 AM 36.9°F2.7°C 34.3°F1.3°C 91% 6.0 mph WSW9.7 kmh WSW 10.0 mph16.1 kmh 29.86 in1011.2 mb 0.00 in0.0 mm 0.00 in0.0 mm 0.11 in2.8 mm
08:42 AM 36.9°F2.7°C 34.3°F1.3°C 91% 6.0 mph WSW9.7 kmh WSW 14.0 mph22.5 kmh 29.86 in1011.2 mb 0.00 in0.0 mm 0.00 in0.0 mm 0.11 in2.8 mm
08:45 AM 36.7°F2.6°C 34.3°F1.3°C 91% 6.0 mph WSW9.7 kmh WSW 14.0 mph22.5 kmh 29.86 in1011.2 mb 0.00 in0.0 mm 0.00 in0.0 mm 0.11 in2.8 mm
08:48 AM 36.7°F2.6°C 34.3°F1.3°C 91% 5.0 mph WSW8.0 kmh WSW 14.0 mph22.5 kmh 29.86 in1011.2 mb 0.00 in0.0 mm 0.00 in0.0 mm 0.11 in2.8 mm
08:51 AM 36.7°F2.6°C 34.2°F1.2°C 91% 4.0 mph WSW6.4 kmh WSW 11.0 mph17.7 kmh 29.86 in1011.2 mb 0.00 in0.0 mm 0.00 in0.0 mm 0.11 in2.8 mm
08:54 AM 36.3°F2.4°C 34.0°F1.1°C 91% 3.0 mph WSW4.8 kmh WSW 6.0 mph9.7 kmh 29.86 in1011.2 mb 0.00 in0.0 mm 0.00 in0.0 mm 0.11 in2.8 mm
08:57 AM 36.3°F2.4°C 34.0°F1.1°C 91% 2.0 mph WSW3.2 kmh WSW 6.0 mph9.7 kmh 29.86 in1011.2 mb 0.00 in0.0 mm 0.00 in0.0 mm 0.11 in2.8 mm
09:00 AM 36.3°F2.4°C 34.0°F1.1°C 91% 2.0 mph WSW3.2 kmh WSW 4.0 mph6.4 kmh 29.86 in1011.2 mb 0.00 in0.0 mm 0.00 in0.0 mm 0.11 in2.8 mm
09:03 AM 36.1°F2.3°C 33.8°F1.0°C 91% 2.0 mph WSW3.2 kmh WSW 4.0 mph6.4 kmh 29.86 in1011.2 mb 0.00 in0.0 mm 0.00 in0.0 mm 0.11 in2.8 mm
09:06 AM 36.1°F2.3°C 33.8°F1.0°C 91% 2.0 mph WSW3.2 kmh WSW 4.0 mph6.4 kmh 29.87 in1011.5 mb 0.00 in0.0 mm 0.00 in0.0 mm 0.11 in2.8 mm
09:09 AM 36.0°F2.2°C 33.6°F0.9°C 91% 2.0 mph WSW3.2 kmh WSW 5.0 mph8.0 kmh 29.87 in1011.5 mb 0.00 in0.0 mm 0.00 in0.0 mm 0.11 in2.8 mm
09:12 AM 36.1°F2.3°C 33.8°F1.0°C 91% 3.0 mph WSW4.8 kmh WSW 9.0 mph14.5 kmh 29.87 in1011.5 mb 0.00 in0.0 mm 0.00 in0.0 mm 0.11 in2.8 mm
09:15 AM 36.3°F2.4°C 34.2°F1.2°C 92% 4.0 mph W6.4 kmh W 9.0 mph14.5 kmh 29.87 in1011.5 mb 0.00 in0.0 mm 0.00 in0.0 mm 0.11 in2.8 mm
09:18 AM 36.5°F2.5°C 34.3°F1.3°C 92% 4.0 mph WSW6.4 kmh WSW 13.0 mph20.9 kmh 29.87 in1011.5 mb 0.00 in0.0 mm 0.00 in0.0 mm 0.11 in2.8 mm
09:21 AM 36.7°F2.6°C 34.5°F1.4°C 92% 4.0 mph WSW6.4 kmh WSW 13.0 mph20.9 kmh 29.87 in1011.5 mb 0.00 in0.0 mm 0.00 in0.0 mm 0.11 in2.8 mm
09:24 AM 36.7°F2.6°C 34.5°F1.4°C 92% 4.0 mph WSW6.4 kmh WSW 13.0 mph20.9 kmh 29.87 in1011.5 mb 0.00 in0.0 mm 0.00 in0.0 mm 0.11 in2.8 mm
09:27 AM 36.9°F2.7°C 34.7°F1.5°C 92% 3.0 mph SW4.8 kmh SW 8.0 mph12.9 kmh 29.87 in1011.5 mb 0.00 in0.0 mm 0.00 in0.0 mm 0.11 in2.8 mm
09:30 AM 37.0°F2.8°C 34.9°F1.6°C 92% 3.0 mph WSW4.8 kmh WSW 8.0 mph12.9 kmh 29.87 in1011.5 mb 0.01 in0.3 mm 0.20 in5.1 mm 0.12 in3.0 mm
09:33 AM 37.0°F2.8°C 35.1°F1.7°C 92% 4.0 mph WSW6.4 kmh WSW 8.0 mph12.9 kmh 29.87 in1011.5 mb 0.01 in0.3 mm 0.00 in0.0 mm 0.12 in3.0 mm
09:36 AM 37.2°F2.9°C 35.2°F1.8°C 92% 5.0 mph WSW8.0 kmh WSW 13.0 mph20.9 kmh 29.87 in1011.5 mb 0.01 in0.3 mm 0.00 in0.0 mm 0.12 in3.0 mm
09:39 AM 37.6°F3.1°C 35.4°F1.9°C 92% 5.0 mph W8.0 kmh W 13.0 mph20.9 kmh 29.87 in1011.5 mb 0.01 in0.3 mm 0.00 in0.0 mm 0.12 in3.0 mm
09:42 AM 37.8°F3.2°C 35.6°F2.0°C 92% 5.0 mph W8.0 kmh W 13.0 mph20.9 kmh 29.87 in1011.5 mb 0.01 in0.3 mm 0.00 in0.0 mm 0.12 in3.0 mm
09:45 AM 37.9°F3.3°C 35.8°F2.1°C 92% 4.0 mph W6.4 kmh W 10.0 mph16.1 kmh 29.87 in1011.5 mb 0.01 in0.3 mm 0.00 in0.0 mm 0.12 in3.0 mm
09:48 AM 37.9°F3.3°C 36.0°F2.2°C 92% 4.0 mph WSW6.4 kmh WSW 10.0 mph16.1 kmh 29.87 in1011.5 mb 0.01 in0.3 mm 0.00 in0.0 mm 0.12 in3.0 mm
09:51 AM 38.1°F3.4°C 36.0°F2.2°C 92% 3.0 mph WSW4.8 kmh WSW 9.0 mph14.5 kmh 29.87 in1011.5 mb 0.01 in0.3 mm 0.00 in0.0 mm 0.12 in3.0 mm
09:54 AM 38.1°F3.4°C 35.8°F2.1°C 91% 4.0 mph WSW6.4 kmh WSW 9.0 mph14.5 kmh 29.87 in1011.5 mb 0.01 in0.3 mm 0.00 in0.0 mm 0.12 in3.0 mm
09:57 AM 38.3°F3.5°C 36.0°F2.2°C 91% 4.0 mph WSW6.4 kmh WSW 9.0 mph14.5 kmh 29.88 in1011.9 mb 0.01 in0.3 mm 0.00 in0.0 mm 0.12 in3.0 mm
10:00 AM 38.3°F3.5°C 36.0°F2.2°C 91% 4.0 mph WSW6.4 kmh WSW 10.0 mph16.1 kmh 29.88 in1011.9 mb 0.01 in0.3 mm 0.00 in0.0 mm 0.12 in3.0 mm
10:03 AM 38.5°F3.6°C 36.0°F2.2°C 91% 4.0 mph WSW6.4 kmh WSW 10.0 mph16.1 kmh 29.88 in1011.9 mb 0.01 in0.3 mm 0.00 in0.0 mm 0.12 in3.0 mm
10:06 AM 38.5°F3.6°C 36.1°F2.3°C 91% 5.0 mph WSW8.0 kmh WSW 11.0 mph17.7 kmh 29.88 in1011.9 mb 0.01 in0.3 mm 0.00 in0.0 mm 0.12 in3.0 mm
10:09 AM 38.7°F3.7°C 36.1°F2.3°C 91% 5.0 mph WSW8.0 kmh WSW 11.0 mph17.7 kmh 29.88 in1011.9 mb 0.01 in0.3 mm 0.00 in0.0 mm 0.12 in3.0 mm
10:12 AM 38.7°F3.7°C 36.3°F2.4°C 91% 5.0 mph WSW8.0 kmh WSW 11.0 mph17.7 kmh 29.88 in1011.9 mb 0.01 in0.3 mm 0.00 in0.0 mm 0.12 in3.0 mm
10:15 AM 38.8°F3.8°C 36.5°F2.5°C 91% 5.0 mph WSW8.0 kmh WSW 10.0 mph16.1 kmh 29.88 in1011.9 mb 0.01 in0.3 mm 0.00 in0.0 mm 0.12 in3.0 mm
10:18 AM 39.0°F3.9°C 36.7°F2.6°C 91% 5.0 mph WSW8.0 kmh WSW 10.0 mph16.1 kmh 29.88 in1011.9 mb 0.01 in0.3 mm 0.00 in0.0 mm 0.12 in3.0 mm
10:21 AM 39.0°F3.9°C 36.7°F2.6°C 91% 5.0 mph WSW8.0 kmh WSW 12.0 mph19.3 kmh 29.88 in1011.9 mb 0.01 in0.3 mm 0.00 in0.0 mm 0.12 in3.0 mm
10:24 AM 39.2°F4.0°C 36.9°F2.7°C 91% 6.0 mph WSW9.7 kmh WSW 13.0 mph20.9 kmh 29.88 in1011.9 mb 0.01 in0.3 mm 0.00 in0.0 mm 0.12 in3.0 mm
10:27 AM 39.4°F4.1°C 37.0°F2.8°C 91% 7.0 mph WSW11.3 kmh WSW 13.0 mph20.9 kmh 29.88 in1011.9 mb 0.01 in0.3 mm 0.00 in0.0 mm 0.12 in3.0 mm
10:30 AM 39.6°F4.2°C 37.0°F2.8°C 91% 8.0 mph WSW12.9 kmh WSW 13.0 mph20.9 kmh 29.88 in1011.9 mb 0.00 in0.0 mm 0.00 in0.0 mm 0.12 in3.0 mm
10:33 AM 39.6°F4.2°C 37.2°F2.9°C 91% 7.0 mph WSW11.3 kmh WSW 14.0 mph22.5 kmh 29.88 in1011.9 mb 0.00 in0.0 mm 0.00 in0.0 mm 0.12 in3.0 mm
10:36 AM 39.7°F4.3°C 37.0°F2.8°C 90% 7.0 mph W11.3 kmh W 19.0 mph30.6 kmh 29.88 in1011.9 mb 0.00 in0.0 mm 0.00 in0.0 mm 0.12 in3.0 mm
10:39 AM 39.9°F4.4°C 37.2°F2.9°C 90% 8.0 mph W12.9 kmh W 19.0 mph30.6 kmh 29.88 in1011.9 mb 0.00 in0.0 mm 0.00 in0.0 mm 0.12 in3.0 mm
10:42 AM 40.1°F4.5°C 37.4°F3.0°C 90% 7.0 mph W11.3 kmh W 19.0 mph30.6 kmh 29.88 in1011.9 mb 0.00 in0.0 mm 0.00 in0.0 mm 0.12 in3.0 mm
10:45 AM 40.3°F4.6°C 37.6°F3.1°C 90% 7.0 mph W11.3 kmh W 19.0 mph30.6 kmh 29.88 in1011.9 mb 0.00 in0.0 mm 0.00 in0.0 mm 0.12 in3.0 mm
10:48 AM 40.5°F4.7°C 37.6°F3.1°C 89% 5.0 mph W8.0 kmh W 15.0 mph24.1 kmh 29.88 in1011.9 mb 0.00 in0.0 mm 0.00 in0.0 mm 0.12 in3.0 mm
10:51 AM 40.6°F4.8°C 37.6°F3.1°C 89% 5.0 mph W8.0 kmh W 17.0 mph27.4 kmh 29.88 in1011.9 mb 0.00 in0.0 mm 0.00 in0.0 mm 0.12 in3.0 mm
10:54 AM 40.6°F4.8°C 37.4°F3.0°C 88% 6.0 mph W9.7 kmh W 17.0 mph27.4 kmh 29.88 in1011.9 mb 0.00 in0.0 mm 0.00 in0.0 mm 0.12 in3.0 mm
10:57 AM 40.8°F4.9°C 37.6°F3.1°C 88% 6.0 mph W9.7 kmh W 17.0 mph27.4 kmh 29.89 in1012.2 mb 0.00 in0.0 mm 0.00 in0.0 mm 0.12 in3.0 mm
11:00 AM 41.2°F5.1°C 37.9°F3.3°C 88% 7.0 mph W11.3 kmh W 17.0 mph27.4 kmh 29.89 in1012.2 mb 0.00 in0.0 mm 0.00 in0.0 mm 0.12 in3.0 mm
11:03 AM 41.4°F5.2°C 37.9°F3.3°C 88% 7.0 mph W11.3 kmh W 16.0 mph25.7 kmh 29.88 in1011.9 mb 0.00 in0.0 mm 0.00 in0.0 mm 0.12 in3.0 mm
11:06 AM 41.5°F5.3°C 37.9°F3.3°C 87% 5.0 mph W8.0 kmh W 15.0 mph24.1 kmh 29.88 in1011.9 mb 0.00 in0.0 mm 0.00 in0.0 mm 0.12 in3.0 mm
11:09 AM 41.5°F5.3°C 37.9°F3.3°C 87% 5.0 mph W8.0 kmh W 11.0 mph17.7 kmh 29.88 in1011.9 mb 0.00 in0.0 mm 0.00 in0.0 mm 0.12 in3.0 mm
11:12 AM 41.5°F5.3°C 37.9°F3.3°C 87% 5.0 mph W8.0 kmh W 11.0 mph17.7 kmh 29.88 in1011.9 mb 0.00 in0.0 mm 0.00 in0.0 mm 0.12 in3.0 mm
11:15 AM 41.5°F5.3°C 37.8°F3.2°C 86% 6.0 mph W9.7 kmh W 15.0 mph24.1 kmh 29.88 in1011.9 mb 0.01 in0.3 mm 0.20 in5.1 mm 0.13 in3.3 mm
11:18 AM 41.5°F5.3°C 37.8°F3.2°C 86% 6.0 mph W9.7 kmh W 15.0 mph24.1 kmh 29.88 in1011.9 mb 0.01 in0.3 mm 0.00 in0.0 mm 0.13 in3.3 mm
11:21 AM 41.5°F5.3°C 37.8°F3.2°C 86% 6.0 mph W9.7 kmh W 15.0 mph24.1 kmh 29.88 in1011.9 mb 0.01 in0.3 mm 0.00 in0.0 mm 0.13 in3.3 mm
11:24 AM 41.7°F5.4°C 37.8°F3.2°C 86% 6.0 mph W9.7 kmh W 16.0 mph25.7 kmh 29.88 in1011.9 mb 0.01 in0.3 mm 0.00 in0.0 mm 0.13 in3.3 mm
11:27 AM 41.9°F5.5°C 37.9°F3.3°C 86% 7.0 mph W11.3 kmh W 16.0 mph25.7 kmh 29.88 in1011.9 mb 0.01 in0.3 mm 0.00 in0.0 mm 0.13 in3.3 mm
11:30 AM 42.1°F5.6°C 37.8°F3.2°C 85% 6.0 mph W9.7 kmh W 16.0 mph25.7 kmh 29.88 in1011.9 mb 0.01 in0.3 mm 0.00 in0.0 mm 0.13 in3.3 mm
11:33 AM 42.1°F5.6°C 37.9°F3.3°C 85% 6.0 mph W9.7 kmh W 16.0 mph25.7 kmh 29.88 in1011.9 mb 0.01 in0.3 mm 0.00 in0.0 mm 0.13 in3.3 mm
11:36 AM 42.3°F5.7°C 37.9°F3.3°C 85% 5.0 mph WNW8.0 kmh WNW 14.0 mph22.5 kmh 29.89 in1012.2 mb 0.01 in0.3 mm 0.00 in0.0 mm 0.13 in3.3 mm
11:39 AM 42.4°F5.8°C 38.3°F3.5°C 85% 5.0 mph W8.0 kmh W 14.0 mph22.5 kmh 29.88 in1011.9 mb 0.01 in0.3 mm 0.00 in0.0 mm 0.13 in3.3 mm
11:42 AM 42.6°F5.9°C 38.5°F3.6°C 85% 5.0 mph W8.0 kmh W 13.0 mph20.9 kmh 29.89 in1012.2 mb 0.01 in0.3 mm 0.00 in0.0 mm 0.13 in3.3 mm
11:45 AM 42.6°F5.9°C 38.5°F3.6°C 85% 5.0 mph W8.0 kmh W 13.0 mph20.9 kmh 29.89 in1012.2 mb 0.01 in0.3 mm 0.00 in0.0 mm 0.13 in3.3 mm
11:48 AM 43.0°F6.1°C 38.7°F3.7°C 85% 5.0 mph WSW8.0 kmh WSW 13.0 mph20.9 kmh 29.88 in1011.9 mb 0.01 in0.3 mm 0.00 in0.0 mm 0.13 in3.3 mm
11:51 AM 43.2°F6.2°C 38.8°F3.8°C 85% 4.0 mph WSW6.4 kmh WSW 11.0 mph17.7 kmh 29.88 in1011.9 mb 0.01 in0.3 mm 0.00 in0.0 mm 0.13 in3.3 mm
11:54 AM 43.2°F6.2°C 38.7°F3.7°C 84% 4.0 mph W6.4 kmh W 11.0 mph17.7 kmh 29.88 in1011.9 mb 0.01 in0.3 mm 0.00 in0.0 mm 0.13 in3.3 mm
11:57 AM 43.3°F6.3°C 38.8°F3.8°C 84% 5.0 mph W8.0 kmh W 13.0 mph20.9 kmh 29.88 in1011.9 mb 0.01 in0.3 mm 0.00 in0.0 mm 0.13 in3.3 mm
12:00 PM 43.3°F6.3°C 38.8°F3.8°C 84% 5.0 mph W8.0 kmh W 13.0 mph20.9 kmh 29.89 in1012.2 mb 0.01 in0.3 mm 0.00 in0.0 mm 0.13 in3.3 mm
12:03 PM 43.3°F6.3°C 38.8°F3.8°C 84% 5.0 mph W8.0 kmh W 13.0 mph20.9 kmh 29.88 in1011.9 mb 0.01 in0.3 mm 0.00 in0.0 mm 0.13 in3.3 mm
12:06 PM 43.3°F6.3°C 38.8°F3.8°C 84% 4.0 mph W6.4 kmh W 9.0 mph14.5 kmh 29.88 in1011.9 mb 0.01 in0.3 mm 0.00 in0.0 mm 0.13 in3.3 mm
12:09 PM 43.3°F6.3°C 38.5°F3.6°C 83% 4.0 mph W6.4 kmh W 9.0 mph14.5 kmh 29.88 in1011.9 mb 0.01 in0.3 mm 0.00 in0.0 mm 0.13 in3.3 mm
12:12 PM 43.3°F6.3°C 38.8°F3.8°C 84% 4.0 mph WSW6.4 kmh WSW 10.0 mph16.1 kmh 29.88 in1011.9 mb 0.01 in0.3 mm 0.00 in0.0 mm 0.13 in3.3 mm
12:15 PM 43.2°F6.2°C 38.3°F3.5°C 83% 4.0 mph W6.4 kmh W 10.0 mph16.1 kmh 29.88 in1011.9 mb 0.00 in0.0 mm 0.00 in0.0 mm 0.13 in3.3 mm
12:18 PM 43.2°F6.2°C 38.3°F3.5°C 83% 4.0 mph W6.4 kmh W 10.0 mph16.1 kmh 29.88 in1011.9 mb 0.00 in0.0 mm 0.00 in0.0 mm 0.13 in3.3 mm
12:21 PM 43.0°F6.1°C 38.5°F3.6°C 84% 4.0 mph W6.4 kmh W 13.0 mph20.9 kmh 29.87 in1011.5 mb 0.00 in0.0 mm 0.00 in0.0 mm 0.13 in3.3 mm
12:24 PM 43.0°F6.1°C 38.5°F3.6°C 84% 3.0 mph W4.8 kmh W 13.0 mph20.9 kmh 29.87 in1011.5 mb 0.00 in0.0 mm 0.00 in0.0 mm 0.13 in3.3 mm
12:27 PM 43.0°F6.1°C 38.8°F3.8°C 85% 3.0 mph WSW4.8 kmh WSW 13.0 mph20.9 kmh 29.87 in1011.5 mb 0.00 in0.0 mm 0.00 in0.0 mm 0.13 in3.3 mm
12:30 PM 43.3°F6.3°C 39.0°F3.9°C 85% 3.0 mph WSW4.8 kmh WSW 8.0 mph12.9 kmh 29.86 in1011.2 mb 0.00 in0.0 mm 0.00 in0.0 mm 0.13 in3.3 mm
12:33 PM 43.5°F6.4°C 39.2°F4.0°C 85% 3.0 mph SW4.8 kmh SW 6.0 mph9.7 kmh 29.86 in1011.2 mb 0.00 in0.0 mm 0.00 in0.0 mm 0.13 in3.3 mm
12:36 PM 43.9°F6.6°C 39.6°F4.2°C 85% 3.0 mph SSW4.8 kmh SSW 6.0 mph9.7 kmh 29.86 in1011.2 mb 0.00 in0.0 mm 0.00 in0.0 mm 0.13 in3.3 mm
12:39 PM 44.1°F6.7°C 39.9°F4.4°C 85% 4.0 mph S6.4 kmh S 7.0 mph11.3 kmh 29.86 in1011.2 mb 0.00 in0.0 mm 0.00 in0.0 mm 0.13 in3.3 mm
12:42 PM 44.2°F6.8°C 39.9°F4.4°C 85% 5.0 mph S8.0 kmh S 9.0 mph14.5 kmh 29.86 in1011.2 mb 0.00 in0.0 mm 0.00 in0.0 mm 0.13 in3.3 mm
12:45 PM 44.4°F6.9°C 40.3°F4.6°C 85% 5.0 mph S8.0 kmh S 9.0 mph14.5 kmh 29.86 in1011.2 mb 0.00 in0.0 mm 0.00 in0.0 mm 0.13 in3.3 mm
12:48 PM 44.8°F7.1°C 40.5°F4.7°C 85% 5.0 mph S8.0 kmh S 9.0 mph14.5 kmh 29.86 in1011.2 mb 0.00 in0.0 mm 0.00 in0.0 mm 0.13 in3.3 mm
12:51 PM 44.8°F7.1°C 40.1°F4.5°C 84% 4.0 mph S6.4 kmh S 8.0 mph12.9 kmh 29.86 in1011.2 mb 0.00 in0.0 mm 0.00 in0.0 mm 0.13 in3.3 mm
12:54 PM 44.8°F7.1°C 40.1°F4.5°C 84% 4.0 mph S6.4 kmh S 8.0 mph12.9 kmh 29.86 in1011.2 mb 0.00 in0.0 mm 0.00 in0.0 mm 0.13 in3.3 mm
12:57 PM 44.8°F7.1°C 39.9°F4.4°C 83% 3.0 mph SSW4.8 kmh SSW 6.0 mph9.7 kmh 29.86 in1011.2 mb 0.00 in0.0 mm 0.00 in0.0 mm 0.13 in3.3 mm
01:00 PM 44.8°F7.1°C 40.1°F4.5°C 84% 3.0 mph SW4.8 kmh SW 6.0 mph9.7 kmh 29.86 in1011.2 mb 0.00 in0.0 mm 0.00 in0.0 mm 0.13 in3.3 mm
01:03 PM 44.8°F7.1°C 40.1°F4.5°C 84% 3.0 mph SW4.8 kmh SW 8.0 mph12.9 kmh 29.85 in1010.8 mb 0.00 in0.0 mm 0.00 in0.0 mm 0.13 in3.3 mm
01:06 PM 44.8°F7.1°C 40.3°F4.6°C 84% 4.0 mph SW6.4 kmh SW 9.0 mph14.5 kmh 29.86 in1011.2 mb 0.00 in0.0 mm 0.00 in0.0 mm 0.13 in3.3 mm
01:09 PM 44.8°F7.1°C 39.9°F4.4°C 83% 5.0 mph SW8.0 kmh SW 9.0 mph14.5 kmh 29.86 in1011.2 mb 0.00 in0.0 mm 0.00 in0.0 mm 0.13 in3.3 mm
01:12 PM 44.8°F7.1°C 40.3°F4.6°C 84% 5.0 mph WSW8.0 kmh WSW 17.0 mph27.4 kmh 29.85 in1010.8 mb 0.00 in0.0 mm 0.00 in0.0 mm 0.13 in3.3 mm
01:15 PM 45.0°F7.2°C 40.1°F4.5°C 83% 6.0 mph WSW9.7 kmh WSW 17.0 mph27.4 kmh 29.85 in1010.8 mb 0.00 in0.0 mm 0.00 in0.0 mm 0.13 in3.3 mm
01:18 PM 45.1°F7.3°C 39.9°F4.4°C 82% 7.0 mph WSW11.3 kmh WSW 17.0 mph27.4 kmh 29.85 in1010.8 mb 0.00 in0.0 mm 0.00 in0.0 mm 0.13 in3.3 mm
01:21 PM 45.3°F7.4°C 40.1°F4.5°C 82% 7.0 mph WSW11.3 kmh WSW 17.0 mph27.4 kmh 29.84 in1010.5 mb 0.00 in0.0 mm 0.00 in0.0 mm 0.13 in3.3 mm
01:24 PM 45.3°F7.4°C 40.3°F4.6°C 82% 7.0 mph W11.3 kmh W 17.0 mph27.4 kmh 29.84 in1010.5 mb 0.00 in0.0 mm 0.00 in0.0 mm 0.13 in3.3 mm
01:27 PM 45.5°F7.5°C 39.9°F4.4°C 81% 7.0 mph W11.3 kmh W 17.0 mph27.4 kmh 29.84 in1010.5 mb 0.00 in0.0 mm 0.00 in0.0 mm 0.13 in3.3 mm
01:30 PM 45.5°F7.5°C 39.9°F4.4°C 81% 8.0 mph W12.9 kmh W 17.0 mph27.4 kmh 29.84 in1010.5 mb 0.00 in0.0 mm 0.00 in0.0 mm 0.13 in3.3 mm
01:33 PM 45.7°F7.6°C 40.1°F4.5°C 81% 9.0 mph WSW14.5 kmh WSW 17.0 mph27.4 kmh 29.84 in1010.5 mb 0.00 in0.0 mm 0.00 in0.0 mm 0.13 in3.3 mm
01:36 PM 45.7°F7.6°C 39.7°F4.3°C 80% 10.0 mph WSW16.1 kmh WSW 21.0 mph33.8 kmh 29.84 in1010.5 mb 0.00 in0.0 mm 0.00 in0.0 mm 0.13 in3.3 mm
01:39 PM 45.7°F7.6°C 39.7°F4.3°C 80% 10.0 mph WSW16.1 kmh WSW 21.0 mph33.8 kmh 29.84 in1010.5 mb 0.00 in0.0 mm 0.00 in0.0 mm 0.13 in3.3 mm
01:42 PM 45.5°F7.5°C 39.7°F4.3°C 80% 10.0 mph WSW16.1 kmh WSW 21.0 mph33.8 kmh 29.84 in1010.5 mb 0.00 in0.0 mm 0.00 in0.0 mm 0.13 in3.3 mm
01:45 PM 45.5°F7.5°C 39.7°F4.3°C 80% 9.0 mph WSW14.5 kmh WSW 17.0 mph27.4 kmh 29.84 in1010.5 mb 0.00 in0.0 mm 0.00 in0.0 mm 0.13 in3.3 mm
01:48 PM 45.5°F7.5°C 39.7°F4.3°C 80% 8.0 mph WSW12.9 kmh WSW 17.0 mph27.4 kmh 29.84 in1010.5 mb 0.00 in0.0 mm 0.00 in0.0 mm 0.13 in3.3 mm
01:51 PM 45.3°F7.4°C 39.6°F4.2°C 80% 9.0 mph WSW14.5 kmh WSW 17.0 mph27.4 kmh 29.83 in1010.2 mb 0.00 in0.0 mm 0.00 in0.0 mm 0.13 in3.3 mm
01:54 PM 45.3°F7.4°C 39.6°F4.2°C 80% 8.0 mph WSW12.9 kmh WSW 15.0 mph24.1 kmh 29.83 in1010.2 mb 0.00 in0.0 mm 0.00 in0.0 mm 0.13 in3.3 mm
01:57 PM 45.3°F7.4°C 39.9°F4.4°C 81% 7.0 mph WSW11.3 kmh WSW 15.0 mph24.1 kmh 29.83 in1010.2 mb 0.00 in0.0 mm 0.00 in0.0 mm 0.13 in3.3 mm
02:00 PM 45.3°F7.4°C 39.9°F4.4°C 81% 7.0 mph WSW11.3 kmh WSW 16.0 mph25.7 kmh 29.83 in1010.2 mb 0.00 in0.0 mm 0.00 in0.0 mm 0.13 in3.3 mm
02:03 PM 45.3°F7.4°C 39.9°F4.4°C 81% 7.0 mph WSW11.3 kmh WSW 16.0 mph25.7 kmh 29.82 in1009.8 mb 0.00 in0.0 mm 0.00 in0.0 mm 0.13 in3.3 mm
02:06 PM 45.3°F7.4°C 39.7°F4.3°C 81% 7.0 mph WSW11.3 kmh WSW 16.0 mph25.7 kmh 29.82 in1009.8 mb 0.00 in0.0 mm 0.00 in0.0 mm 0.13 in3.3 mm
02:09 PM 45.3°F7.4°C 39.7°F4.3°C 81% 7.0 mph WSW11.3 kmh WSW 16.0 mph25.7 kmh 29.82 in1009.8 mb 0.00 in0.0 mm 0.00 in0.0 mm 0.13 in3.3 mm
02:12 PM 45.1°F7.3°C 39.7°F4.3°C 81% 7.0 mph WSW11.3 kmh WSW 15.0 mph24.1 kmh 29.82 in1009.8 mb 0.00 in0.0 mm 0.00 in0.0 mm 0.13 in3.3 mm
02:15 PM 45.1°F7.3°C 39.6°F4.2°C 81% 7.0 mph WSW11.3 kmh WSW 15.0 mph24.1 kmh 29.82 in1009.8 mb 0.00 in0.0 mm 0.00 in0.0 mm 0.13 in3.3 mm
02:18 PM 45.1°F7.3°C 39.6°F4.2°C 81% 7.0 mph WSW11.3 kmh WSW 12.0 mph19.3 kmh 29.81 in1009.5 mb 0.00 in0.0 mm 0.00 in0.0 mm 0.13 in3.3 mm
02:21 PM 45.0°F7.2°C 39.9°F4.4°C 82% 8.0 mph WSW12.9 kmh WSW 18.0 mph29.0 kmh 29.81 in1009.5 mb 0.00 in0.0 mm 0.00 in0.0 mm 0.13 in3.3 mm
02:24 PM 45.0°F7.2°C 39.9°F4.4°C 82% 8.0 mph WSW12.9 kmh WSW 18.0 mph29.0 kmh 29.81 in1009.5 mb 0.00 in0.0 mm 0.00 in0.0 mm 0.13 in3.3 mm
02:27 PM 45.0°F7.2°C 39.9°F4.4°C 82% 7.0 mph WSW11.3 kmh WSW 18.0 mph29.0 kmh 29.81 in1009.5 mb 0.00 in0.0 mm 0.00 in0.0 mm 0.13 in3.3 mm
02:30 PM 45.0°F7.2°C 39.7°F4.3°C 82% 7.0 mph WSW11.3 kmh WSW 18.0 mph29.0 kmh 29.80 in1009.1 mb 0.00 in0.0 mm 0.00 in0.0 mm 0.13 in3.3 mm
02:33 PM 45.0°F7.2°C 39.7°F4.3°C 82% 6.0 mph WSW9.7 kmh WSW 16.0 mph25.7 kmh 29.80 in1009.1 mb 0.00 in0.0 mm 0.00 in0.0 mm 0.13 in3.3 mm
02:36 PM 45.0°F7.2°C 39.7°F4.3°C 82% 6.0 mph W9.7 kmh W 16.0 mph25.7 kmh 29.80 in1009.1 mb 0.00 in0.0 mm 0.00 in0.0 mm 0.13 in3.3 mm
02:39 PM 45.0°F7.2°C 39.7°F4.3°C 82% 6.0 mph W9.7 kmh W 16.0 mph25.7 kmh 29.80 in1009.1 mb 0.00 in0.0 mm 0.00 in0.0 mm 0.13 in3.3 mm
02:42 PM 45.0°F7.2°C 39.7°F4.3°C 82% 5.0 mph W8.0 kmh W 12.0 mph19.3 kmh 29.80 in1009.1 mb 0.00 in0.0 mm 0.00 in0.0 mm 0.13 in3.3 mm
02:45 PM 45.0°F7.2°C 39.7°F4.3°C 82% 6.0 mph WSW9.7 kmh WSW 12.0 mph19.3 kmh 29.80 in1009.1 mb 0.00 in0.0 mm 0.00 in0.0 mm 0.13 in3.3 mm
02:48 PM 45.0°F7.2°C 39.7°F4.3°C 82% 6.0 mph WSW9.7 kmh WSW 20.0 mph32.2 kmh 29.79 in1008.8 mb 0.00 in0.0 mm 0.00 in0.0 mm 0.13 in3.3 mm
02:51 PM 44.8°F7.1°C 39.6°F4.2°C 82% 8.0 mph WSW12.9 kmh WSW 20.0 mph32.2 kmh 29.79 in1008.8 mb 0.00 in0.0 mm 0.00 in0.0 mm 0.13 in3.3 mm
02:54 PM 44.8°F7.1°C 39.6°F4.2°C 82% 9.0 mph WSW14.5 kmh WSW 20.0 mph32.2 kmh 29.79 in1008.8 mb 0.00 in0.0 mm 0.00 in0.0 mm 0.13 in3.3 mm
02:57 PM 44.8°F7.1°C 39.6°F4.2°C 82% 10.0 mph WSW16.1 kmh WSW 20.0 mph32.2 kmh 29.79 in1008.8 mb 0.00 in0.0 mm 0.00 in0.0 mm 0.13 in3.3 mm
03:00 PM 44.6°F7.0°C 39.4°F4.1°C 82% 9.0 mph WSW14.5 kmh WSW 15.0 mph24.1 kmh 29.78 in1008.5 mb 0.00 in0.0 mm 0.00 in0.0 mm 0.13 in3.3 mm
03:03 PM 44.6°F7.0°C 39.7°F4.3°C 83% 9.0 mph WSW14.5 kmh WSW 14.0 mph22.5 kmh 29.78 in1008.5 mb 0.00 in0.0 mm 0.00 in0.0 mm 0.13 in3.3 mm
03:06 PM 44.6°F7.0°C 39.7°F4.3°C 83% 8.0 mph WSW12.9 kmh WSW 14.0 mph22.5 kmh 29.77 in1008.1 mb 0.00 in0.0 mm 0.00 in0.0 mm 0.13 in3.3 mm
03:09 PM 44.4°F6.9°C 39.7°F4.3°C 83% 7.0 mph WSW11.3 kmh WSW 13.0 mph20.9 kmh 29.77 in1008.1 mb 0.00 in0.0 mm 0.00 in0.0 mm 0.13 in3.3 mm
03:12 PM 44.4°F6.9°C 39.7°F4.3°C 83% 7.0 mph SW11.3 kmh SW 12.0 mph19.3 kmh 29.77 in1008.1 mb 0.00 in0.0 mm 0.00 in0.0 mm 0.13 in3.3 mm
03:15 PM 44.4°F6.9°C 39.9°F4.4°C 84% 7.0 mph SW11.3 kmh SW 14.0 mph22.5 kmh 29.77 in1008.1 mb 0.00 in0.0 mm 0.00 in0.0 mm 0.13 in3.3 mm
03:18 PM 44.4°F6.9°C 39.9°F4.4°C 84% 8.0 mph WSW12.9 kmh WSW 14.0 mph22.5 kmh 29.78 in1008.5 mb 0.00 in0.0 mm 0.00 in0.0 mm 0.13 in3.3 mm
03:21 PM 44.2°F6.8°C 39.7°F4.3°C 84% 8.0 mph WSW12.9 kmh WSW 16.0 mph25.7 kmh 29.77 in1008.1 mb 0.00 in0.0 mm 0.00 in0.0 mm 0.13 in3.3 mm
03:24 PM 44.2°F6.8°C 39.7°F4.3°C 84% 8.0 mph WSW12.9 kmh WSW 16.0 mph25.7 kmh 29.77 in1008.1 mb 0.00 in0.0 mm 0.00 in0.0 mm 0.13 in3.3 mm
03:27 PM 44.1°F6.7°C 39.9°F4.4°C 85% 8.0 mph WSW12.9 kmh WSW 19.0 mph30.6 kmh 29.77 in1008.1 mb 0.00 in0.0 mm 0.00 in0.0 mm 0.13 in3.3 mm
03:30 PM 44.1°F6.7°C 39.9°F4.4°C 85% 8.0 mph WSW12.9 kmh WSW 19.0 mph30.6 kmh 29.77 in1008.1 mb 0.00 in0.0 mm 0.00 in0.0 mm 0.13 in3.3 mm
03:33 PM 44.1°F6.7°C 39.7°F4.3°C 85% 8.0 mph WSW12.9 kmh WSW 19.0 mph30.6 kmh 29.77 in1008.1 mb 0.00 in0.0 mm 0.00 in0.0 mm 0.13 in3.3 mm
03:36 PM 44.1°F6.7°C 39.7°F4.3°C 85% 8.0 mph WSW12.9 kmh WSW 16.0 mph25.7 kmh 29.76 in1007.8 mb 0.00 in0.0 mm 0.00 in0.0 mm 0.13 in3.3 mm
03:39 PM 43.9°F6.6°C 39.9°F4.4°C 86% 7.0 mph SW11.3 kmh SW 14.0 mph22.5 kmh 29.75 in1007.5 mb 0.00 in0.0 mm 0.00 in0.0 mm 0.13 in3.3 mm
03:42 PM 43.9°F6.6°C 39.9°F4.4°C 86% 7.0 mph SW11.3 kmh SW 14.0 mph22.5 kmh 29.75 in1007.5 mb 0.00 in0.0 mm 0.00 in0.0 mm 0.13 in3.3 mm
03:45 PM 43.9°F6.6°C 39.9°F4.4°C 86% 6.0 mph SW9.7 kmh SW 11.0 mph17.7 kmh 29.75 in1007.5 mb 0.00 in0.0 mm 0.00 in0.0 mm 0.13 in3.3 mm
03:48 PM 43.9°F6.6°C 40.1°F4.5°C 87% 6.0 mph SW9.7 kmh SW 11.0 mph17.7 kmh 29.75 in1007.5 mb 0.00 in0.0 mm 0.00 in0.0 mm 0.13 in3.3 mm
03:51 PM 43.9°F6.6°C 40.1°F4.5°C 87% 6.0 mph SW9.7 kmh SW 11.0 mph17.7 kmh 29.75 in1007.5 mb 0.00 in0.0 mm 0.00 in0.0 mm 0.13 in3.3 mm
03:54 PM 43.9°F6.6°C 40.5°F4.7°C 88% 5.0 mph SW8.0 kmh SW 11.0 mph17.7 kmh 29.74 in1007.1 mb 0.00 in0.0 mm 0.00 in0.0 mm 0.13 in3.3 mm
03:57 PM 43.9°F6.6°C 40.5°F4.7°C 88% 5.0 mph SW8.0 kmh SW 11.0 mph17.7 kmh 29.74 in1007.1 mb 0.00 in0.0 mm 0.00 in0.0 mm 0.13 in3.3 mm
04:00 PM 43.9°F6.6°C 40.5°F4.7°C 88% 5.0 mph SW8.0 kmh SW 11.0 mph17.7 kmh 29.74 in1007.1 mb 0.00 in0.0 mm 0.00 in0.0 mm 0.13 in3.3 mm
04:03 PM 43.9°F6.6°C 40.5°F4.7°C 88% 4.0 mph SW6.4 kmh SW 11.0 mph17.7 kmh 29.73 in1006.8 mb 0.00 in0.0 mm 0.00 in0.0 mm 0.13 in3.3 mm
04:06 PM 43.9°F6.6°C 40.8°F4.9°C 89% 4.0 mph SSW6.4 kmh SSW 8.0 mph12.9 kmh 29.73 in1006.8 mb 0.00 in0.0 mm 0.00 in0.0 mm 0.13 in3.3 mm
04:09 PM 43.9°F6.6°C 40.8°F4.9°C 89% 5.0 mph SSW8.0 kmh SSW 9.0 mph14.5 kmh 29.73 in1006.8 mb 0.00 in0.0 mm 0.00 in0.0 mm 0.13 in3.3 mm
04:12 PM 43.7°F6.5°C 40.6°F4.8°C 89% 5.0 mph SSW8.0 kmh SSW 11.0 mph17.7 kmh 29.73 in1006.8 mb 0.00 in0.0 mm 0.00 in0.0 mm 0.13 in3.3 mm
04:15 PM 43.9°F6.6°C 40.8°F4.9°C 89% 6.0 mph SSW9.7 kmh SSW 11.0 mph17.7 kmh 29.73 in1006.8 mb 0.01 in0.3 mm 0.20 in5.1 mm 0.13 in3.3 mm
04:18 PM 43.9°F6.6°C 41.0°F5.0°C 90% 6.0 mph SW9.7 kmh SW 12.0 mph19.3 kmh 29.72 in1006.4 mb 0.01 in0.3 mm 0.00 in0.0 mm 0.13 in3.3 mm
04:21 PM 43.9°F6.6°C 41.0°F5.0°C 90% 6.0 mph SW9.7 kmh SW 15.0 mph24.1 kmh 29.72 in1006.4 mb 0.01 in0.3 mm 0.00 in0.0 mm 0.13 in3.3 mm
04:24 PM 43.9°F6.6°C 41.4°F5.2°C 91% 7.0 mph SW11.3 kmh SW 17.0 mph27.4 kmh 29.72 in1006.4 mb 0.01 in0.3 mm 0.00 in0.0 mm 0.13 in3.3 mm
04:27 PM 43.9°F6.6°C 41.4°F5.2°C 91% 8.0 mph SW12.9 kmh SW 17.0 mph27.4 kmh 29.71 in1006.1 mb 0.01 in0.3 mm 0.00 in0.0 mm 0.13 in3.3 mm
04:30 PM 43.9°F6.6°C 41.4°F5.2°C 91% 8.0 mph SW12.9 kmh SW 17.0 mph27.4 kmh 29.71 in1006.1 mb 0.01 in0.3 mm 0.00 in0.0 mm 0.13 in3.3 mm
04:33 PM 43.9°F6.6°C 41.4°F5.2°C 91% 8.0 mph SW12.9 kmh SW 18.0 mph29.0 kmh 29.71 in1006.1 mb 0.02 in0.5 mm 0.20 in5.1 mm 0.14 in3.6 mm
04:36 PM 43.9°F6.6°C 41.4°F5.2°C 91% 8.0 mph SW12.9 kmh SW 18.0 mph29.0 kmh 29.71 in1006.1 mb 0.02 in0.5 mm 0.00 in0.0 mm 0.14 in3.6 mm
04:39 PM 43.9°F6.6°C 41.4°F5.2°C 91% 8.0 mph SW12.9 kmh SW 18.0 mph29.0 kmh 29.70 in1005.8 mb 0.02 in0.5 mm 0.00 in0.0 mm 0.15 in3.8 mm
04:42 PM 43.9°F6.6°C 41.7°F5.4°C 92% 7.0 mph SW11.3 kmh SW 14.0 mph22.5 kmh 29.70 in1005.8 mb 0.02 in0.5 mm 0.00 in0.0 mm 0.15 in3.8 mm
04:45 PM 43.9°F6.6°C 41.7°F5.4°C 92% 7.0 mph SW11.3 kmh SW 14.0 mph22.5 kmh 29.70 in1005.8 mb 0.02 in0.5 mm 0.00 in0.0 mm 0.15 in3.8 mm
04:48 PM 43.9°F6.6°C 41.7°F5.4°C 92% 7.0 mph SW11.3 kmh SW 14.0 mph22.5 kmh 29.69 in1005.4 mb 0.03 in0.8 mm 0.20 in5.1 mm 0.16 in4.1 mm
04:51 PM 43.9°F6.6°C 41.7°F5.4°C 92% 7.0 mph SW11.3 kmh SW 15.0 mph24.1 kmh 29.68 in1005.1 mb 0.03 in0.8 mm 0.00 in0.0 mm 0.16 in4.1 mm
04:54 PM 43.9°F6.6°C 41.7°F5.4°C 92% 7.0 mph SW11.3 kmh SW 15.0 mph24.1 kmh 29.68 in1005.1 mb 0.04 in1.0 mm 0.20 in5.1 mm 0.17 in4.3 mm
04:57 PM 43.9°F6.6°C 41.7°F5.4°C 92% 7.0 mph SW11.3 kmh SW 15.0 mph24.1 kmh 29.68 in1005.1 mb 0.04 in1.0 mm 0.00 in0.0 mm 0.17 in4.3 mm
05:00 PM 43.9°F6.6°C 42.1°F5.6°C 93% 8.0 mph SW12.9 kmh SW 15.0 mph24.1 kmh 29.67 in1004.7 mb 0.04 in1.0 mm 0.00 in0.0 mm 0.17 in4.3 mm
05:03 PM 43.9°F6.6°C 42.1°F5.6°C 93% 8.0 mph SW12.9 kmh SW 16.0 mph25.7 kmh 29.66 in1004.4 mb 0.04 in1.0 mm 0.00 in0.0 mm 0.17 in4.3 mm
05:06 PM 44.1°F6.7°C 42.1°F5.6°C 93% 8.0 mph SW12.9 kmh SW 18.0 mph29.0 kmh 29.66 in1004.4 mb 0.04 in1.0 mm 0.00 in0.0 mm 0.17 in4.3 mm
05:09 PM 44.1°F6.7°C 42.1°F5.6°C 93% 8.0 mph SW12.9 kmh SW 18.0 mph29.0 kmh 29.66 in1004.4 mb 0.04 in1.0 mm 0.00 in0.0 mm 0.17 in4.3 mm
05:12 PM 44.1°F6.7°C 42.3°F5.7°C 93% 7.0 mph SSW11.3 kmh SSW 18.0 mph29.0 kmh 29.65 in1004.1 mb 0.04 in1.0 mm 0.00 in0.0 mm 0.17 in4.3 mm
05:15 PM 44.1°F6.7°C 42.3°F5.7°C 93% 7.0 mph SSW11.3 kmh SSW 18.0 mph29.0 kmh 29.64 in1003.7 mb 0.03 in0.8 mm 0.00 in0.0 mm 0.17 in4.3 mm
05:18 PM 44.2°F6.8°C 42.3°F5.7°C 93% 7.0 mph SSW11.3 kmh SSW 14.0 mph22.5 kmh 29.64 in1003.7 mb 0.03 in0.8 mm 0.00 in0.0 mm 0.17 in4.3 mm
05:21 PM 44.2°F6.8°C 42.6°F5.9°C 94% 8.0 mph SSW12.9 kmh SSW 15.0 mph24.1 kmh 29.63 in1003.4 mb 0.03 in0.8 mm 0.00 in0.0 mm 0.17 in4.3 mm
05:24 PM 44.4°F6.9°C 42.8°F6.0°C 94% 9.0 mph SSW14.5 kmh SSW 15.0 mph24.1 kmh 29.63 in1003.4 mb 0.03 in0.8 mm 0.00 in0.0 mm 0.17 in4.3 mm
05:27 PM 44.4°F6.9°C 42.8°F6.0°C 94% 10.0 mph S16.1 kmh S 15.0 mph24.1 kmh 29.62 in1003.0 mb 0.04 in1.0 mm 0.20 in5.1 mm 0.17 in4.3 mm
05:30 PM 44.8°F7.1°C 43.2°F6.2°C 94% 10.0 mph S16.1 kmh S 19.0 mph30.6 kmh 29.62 in1003.0 mb 0.04 in1.0 mm 0.00 in0.0 mm 0.17 in4.3 mm
05:33 PM 44.8°F7.1°C 43.2°F6.2°C 94% 11.0 mph SSW17.7 kmh SSW 20.0 mph32.2 kmh 29.61 in1002.7 mb 0.03 in0.8 mm 0.00 in0.0 mm 0.17 in4.3 mm
05:36 PM 45.0°F7.2°C 43.7°F6.5°C 95% 12.0 mph SSW19.3 kmh SSW 20.0 mph32.2 kmh 29.60 in1002.4 mb 0.03 in0.8 mm 0.00 in0.0 mm 0.17 in4.3 mm
05:39 PM 45.1°F7.3°C 43.7°F6.5°C 95% 12.0 mph SSW19.3 kmh SSW 20.0 mph32.2 kmh 29.60 in1002.4 mb 0.03 in0.8 mm 0.00 in0.0 mm 0.18 in4.6 mm
05:42 PM 45.3°F7.4°C 43.9°F6.6°C 95% 11.0 mph SSW17.7 kmh SSW 18.0 mph29.0 kmh 29.60 in1002.4 mb 0.03 in0.8 mm 0.00 in0.0 mm 0.18 in4.6 mm
05:45 PM 45.3°F7.4°C 44.1°F6.7°C 95% 11.0 mph SSW17.7 kmh SSW 20.0 mph32.2 kmh 29.59 in1002.0 mb 0.03 in0.8 mm 0.00 in0.0 mm 0.18 in4.6 mm
05:48 PM 45.7°F7.6°C 44.2°F6.8°C 95% 11.0 mph SSW17.7 kmh SSW 20.0 mph32.2 kmh 29.59 in1002.0 mb 0.03 in0.8 mm 0.00 in0.0 mm 0.19 in4.8 mm
05:51 PM 45.7°F7.6°C 44.4°F6.9°C 95% 11.0 mph SSW17.7 kmh SSW 20.0 mph32.2 kmh 29.58 in1001.7 mb 0.03 in0.8 mm 0.00 in0.0 mm 0.19 in4.8 mm
05:54 PM 45.9°F7.7°C 44.4°F6.9°C 95% 11.0 mph SSW17.7 kmh SSW 19.0 mph30.6 kmh 29.58 in1001.7 mb 0.02 in0.5 mm 0.00 in0.0 mm 0.19 in4.8 mm
05:57 PM 46.0°F7.8°C 44.6°F7.0°C 95% 11.0 mph SSW17.7 kmh SSW 21.0 mph33.8 kmh 29.57 in1001.4 mb 0.02 in0.5 mm 0.00 in0.0 mm 0.19 in4.8 mm
06:00 PM 46.0°F7.8°C 44.8°F7.1°C 95% 11.0 mph SSW17.7 kmh SSW 21.0 mph33.8 kmh 29.57 in1001.4 mb 0.03 in0.8 mm 0.01 in0.3 mm 0.20 in5.1 mm
06:03 PM 46.2°F7.9°C 44.8°F7.1°C 95% 11.0 mph SSW17.7 kmh SSW 21.0 mph33.8 kmh 29.56 in1001.0 mb 0.03 in0.8 mm 0.00 in0.0 mm 0.20 in5.1 mm
06:06 PM 46.2°F7.9°C 45.0°F7.2°C 95% 11.0 mph SSW17.7 kmh SSW 21.0 mph33.8 kmh 29.56 in1001.0 mb 0.03 in0.8 mm 0.00 in0.0 mm 0.20 in5.1 mm
06:09 PM 46.2°F7.9°C 45.0°F7.2°C 95% 10.0 mph SSW16.1 kmh SSW 21.0 mph33.8 kmh 29.55 in1000.7 mb 0.03 in0.8 mm 0.00 in0.0 mm 0.20 in5.1 mm
06:12 PM 46.4°F8.0°C 45.0°F7.2°C 95% 10.0 mph SSW16.1 kmh SSW 21.0 mph33.8 kmh 29.55 in1000.7 mb 0.03 in0.8 mm 0.00 in0.0 mm 0.20 in5.1 mm
06:15 PM 46.6°F8.1°C 45.5°F7.5°C 96% 10.0 mph SSW16.1 kmh SSW 24.0 mph38.6 kmh 29.54 in1000.3 mb 0.03 in0.8 mm 0.00 in0.0 mm 0.20 in5.1 mm
06:18 PM 46.8°F8.2°C 45.7°F7.6°C 96% 11.0 mph SSW17.7 kmh SSW 24.0 mph38.6 kmh 29.53 in1000.0 mb 0.03 in0.8 mm 0.00 in0.0 mm 0.20 in5.1 mm
06:21 PM 46.9°F8.3°C 45.9°F7.7°C 96% 12.0 mph SSW19.3 kmh SSW 24.0 mph38.6 kmh 29.53 in1000.0 mb 0.03 in0.8 mm 0.00 in0.0 mm 0.20 in5.1 mm
06:24 PM 46.9°F8.3°C 45.9°F7.7°C 96% 12.0 mph SW19.3 kmh SW 25.0 mph40.2 kmh 29.53 in1000.0 mb 0.04 in1.0 mm 0.20 in5.1 mm 0.20 in5.1 mm
06:27 PM 47.1°F8.4°C 46.0°F7.8°C 96% 12.0 mph SW19.3 kmh SW 26.0 mph41.8 kmh 29.52 in999.7 mb 0.03 in0.8 mm 0.00 in0.0 mm 0.20 in5.1 mm
06:30 PM 47.5°F8.6°C 46.4°F8.0°C 96% 13.0 mph SW20.9 kmh SW 26.0 mph41.8 kmh 29.52 in999.7 mb 0.03 in0.8 mm 0.00 in0.0 mm 0.20 in5.1 mm
06:33 PM 47.7°F8.7°C 46.6°F8.1°C 96% 13.0 mph SW20.9 kmh SW 27.0 mph43.5 kmh 29.52 in999.7 mb 0.03 in0.8 mm 0.00 in0.0 mm 0.20 in5.1 mm
06:36 PM 47.8°F8.8°C 46.8°F8.2°C 96% 14.0 mph SW22.5 kmh SW 27.0 mph43.5 kmh 29.51 in999.3 mb 0.03 in0.8 mm 0.00 in0.0 mm 0.20 in5.1 mm
06:39 PM 47.8°F8.8°C 46.8°F8.2°C 96% 13.0 mph SW20.9 kmh SW 27.0 mph43.5 kmh 29.51 in999.3 mb 0.03 in0.8 mm 0.00 in0.0 mm 0.21 in5.3 mm
06:42 PM 48.0°F8.9°C 46.9°F8.3°C 96% 13.0 mph SW20.9 kmh SW 23.0 mph37.0 kmh 29.50 in999.0 mb 0.03 in0.8 mm 0.00 in0.0 mm 0.21 in5.3 mm
06:45 PM 48.2°F9.0°C 47.1°F8.4°C 96% 13.0 mph SW20.9 kmh SW 23.0 mph37.0 kmh 29.51 in999.3 mb 0.03 in0.8 mm 0.00 in0.0 mm 0.21 in5.3 mm
06:48 PM 48.4°F9.1°C 47.3°F8.5°C 96% 13.0 mph SW20.9 kmh SW 25.0 mph40.2 kmh 29.50 in999.0 mb 0.02 in0.5 mm 0.00 in0.0 mm 0.21 in5.3 mm
06:51 PM 48.4°F9.1°C 47.3°F8.5°C 96% 13.0 mph SW20.9 kmh SW 25.0 mph40.2 kmh 29.49 in998.6 mb 0.03 in0.8 mm 0.20 in5.1 mm 0.22 in5.6 mm
06:54 PM 48.6°F9.2°C 47.5°F8.6°C 96% 13.0 mph SW20.9 kmh SW 25.0 mph40.2 kmh 29.49 in998.6 mb 0.03 in0.8 mm 0.00 in0.0 mm 0.22 in5.6 mm
06:57 PM 48.7°F9.3°C 47.7°F8.7°C 96% 14.0 mph SW22.5 kmh SW 24.0 mph38.6 kmh 29.49 in998.6 mb 0.04 in1.0 mm 0.20 in5.1 mm 0.23 in5.8 mm
07:00 PM 48.7°F9.3°C 47.7°F8.7°C 96% 14.0 mph SW22.5 kmh SW 25.0 mph40.2 kmh 29.49 in998.6 mb 0.03 in0.8 mm 0.00 in0.0 mm 0.23 in5.8 mm
07:03 PM 48.9°F9.4°C 47.8°F8.8°C 96% 14.0 mph SW22.5 kmh SW 25.0 mph40.2 kmh 29.48 in998.3 mb 0.03 in0.8 mm 0.00 in0.0 mm 0.23 in5.8 mm
07:06 PM 48.9°F9.4°C 47.8°F8.8°C 96% 14.0 mph SW22.5 kmh SW 25.0 mph40.2 kmh 29.48 in998.3 mb 0.03 in0.8 mm 0.00 in0.0 mm 0.23 in5.8 mm
07:09 PM 49.3°F9.6°C 48.0°F8.9°C 96% 15.0 mph SW24.1 kmh SW 25.0 mph40.2 kmh 29.48 in998.3 mb 0.04 in1.0 mm 0.20 in5.1 mm 0.24 in6.1 mm
07:12 PM 49.3°F9.6°C 48.2°F9.0°C 96% 16.0 mph SW25.7 kmh SW 26.0 mph41.8 kmh 29.48 in998.3 mb 0.04 in1.0 mm 0.00 in0.0 mm 0.24 in6.1 mm
07:15 PM 49.5°F9.7°C 48.4°F9.1°C 96% 16.0 mph WSW25.7 kmh WSW 26.0 mph41.8 kmh 29.48 in998.3 mb 0.05 in1.3 mm 0.20 in5.1 mm 0.24 in6.1 mm
07:18 PM 49.5°F9.7°C 48.4°F9.1°C 96% 16.0 mph WSW25.7 kmh WSW 27.0 mph43.5 kmh 29.47 in998.0 mb 0.05 in1.3 mm 0.00 in0.0 mm 0.24 in6.1 mm
07:21 PM 49.6°F9.8°C 48.6°F9.2°C 96% 17.0 mph WSW27.4 kmh WSW 29.0 mph46.7 kmh 29.47 in998.0 mb 0.05 in1.3 mm 0.00 in0.0 mm 0.24 in6.1 mm
07:24 PM 49.6°F9.8°C 48.6°F9.2°C 96% 17.0 mph WSW27.4 kmh WSW 29.0 mph46.7 kmh 29.47 in998.0 mb 0.04 in1.0 mm 0.00 in0.0 mm 0.24 in6.1 mm
07:27 PM 49.8°F9.9°C 48.7°F9.3°C 96% 19.0 mph WSW30.6 kmh WSW 30.0 mph48.3 kmh 29.47 in998.0 mb 0.05 in1.3 mm 0.20 in5.1 mm 0.25 in6.4 mm
07:30 PM 49.8°F9.9°C 48.7°F9.3°C 96% 20.0 mph WSW32.2 kmh WSW 34.0 mph54.7 kmh 29.46 in997.6 mb 0.05 in1.3 mm 0.00 in0.0 mm 0.25 in6.4 mm
07:33 PM 49.8°F9.9°C 48.7°F9.3°C 96% 18.0 mph WSW29.0 kmh WSW 34.0 mph54.7 kmh 29.46 in997.6 mb 0.05 in1.3 mm 0.00 in0.0 mm 0.25 in6.4 mm
07:36 PM 50.0°F10.0°C 48.9°F9.4°C 96% 18.0 mph WSW29.0 kmh WSW 34.0 mph54.7 kmh 29.46 in997.6 mb 0.06 in1.5 mm 0.20 in5.1 mm 0.26 in6.6 mm
07:39 PM 50.2°F10.1°C 48.9°F9.4°C 96% 16.0 mph WSW25.7 kmh WSW 28.0 mph45.1 kmh 29.46 in997.6 mb 0.05 in1.3 mm 0.00 in0.0 mm 0.26 in6.6 mm
07:42 PM 50.2°F10.1°C 48.9°F9.4°C 96% 16.0 mph WSW25.7 kmh WSW 30.0 mph48.3 kmh 29.46 in997.6 mb 0.05 in1.3 mm 0.00 in0.0 mm 0.26 in6.6 mm
07:45 PM 50.2°F10.1°C 49.1°F9.5°C 96% 15.0 mph WSW24.1 kmh WSW 30.0 mph48.3 kmh 29.45 in997.3 mb 0.05 in1.3 mm 0.00 in0.0 mm 0.26 in6.6 mm
07:48 PM 50.2°F10.1°C 49.1°F9.5°C 96% 16.0 mph WSW25.7 kmh WSW 30.0 mph48.3 kmh 29.45 in997.3 mb 0.05 in1.3 mm 0.00 in0.0 mm 0.26 in6.6 mm
07:51 PM 50.4°F10.2°C 49.3°F9.6°C 96% 16.0 mph WSW25.7 kmh WSW 27.0 mph43.5 kmh 29.45 in997.3 mb 0.04 in1.0 mm 0.00 in0.0 mm 0.26 in6.6 mm
07:54 PM 50.4°F10.2°C 49.3°F9.6°C 96% 16.0 mph WSW25.7 kmh WSW 27.0 mph43.5 kmh 29.45 in997.3 mb 0.04 in1.0 mm 0.00 in0.0 mm 0.26 in6.6 mm
07:57 PM 50.4°F10.2°C 49.3°F9.6°C 96% 16.0 mph WSW25.7 kmh WSW 26.0 mph41.8 kmh 29.45 in997.3 mb 0.03 in0.8 mm 0.00 in0.0 mm 0.26 in6.6 mm
08:00 PM 50.4°F10.2°C 49.3°F9.6°C 96% 15.0 mph WSW24.1 kmh WSW 26.0 mph41.8 kmh 29.45 in997.3 mb 0.03 in0.8 mm 0.00 in0.0 mm 0.26 in6.6 mm
08:03 PM 50.5°F10.3°C 49.5°F9.7°C 96% 14.0 mph WSW22.5 kmh WSW 24.0 mph38.6 kmh 29.45 in997.3 mb 0.03 in0.8 mm 0.00 in0.0 mm 0.26 in6.6 mm
08:06 PM 50.5°F10.3°C 49.5°F9.7°C 96% 14.0 mph WSW22.5 kmh WSW 24.0 mph38.6 kmh 29.45 in997.3 mb 0.02 in0.5 mm 0.00 in0.0 mm 0.26 in6.6 mm
08:09 PM 50.7°F10.4°C 49.6°F9.8°C 96% 16.0 mph WSW25.7 kmh WSW 28.0 mph45.1 kmh 29.45 in997.3 mb 0.02 in0.5 mm 0.00 in0.0 mm 0.26 in6.6 mm
08:12 PM 50.7°F10.4°C 49.6°F9.8°C 96% 17.0 mph WSW27.4 kmh WSW 31.0 mph49.9 kmh 29.43 in996.6 mb 0.02 in0.5 mm 0.00 in0.0 mm 0.26 in6.6 mm
08:15 PM 50.9°F10.5°C 49.8°F9.9°C 96% 17.0 mph WSW27.4 kmh WSW 31.0 mph49.9 kmh 29.44 in997.0 mb 0.02 in0.5 mm 0.00 in0.0 mm 0.26 in6.6 mm
08:18 PM 50.9°F10.5°C 49.8°F9.9°C 96% 18.0 mph WSW29.0 kmh WSW 31.0 mph49.9 kmh 29.43 in996.6 mb 0.02 in0.5 mm 0.00 in0.0 mm 0.26 in6.6 mm
08:21 PM 51.1°F10.6°C 49.8°F9.9°C 96% 17.0 mph WSW27.4 kmh WSW 31.0 mph49.9 kmh 29.43 in996.6 mb 0.02 in0.5 mm 0.00 in0.0 mm 0.26 in6.6 mm
08:24 PM 51.1°F10.6°C 49.8°F9.9°C 96% 17.0 mph WSW27.4 kmh WSW 29.0 mph46.7 kmh 29.43 in996.6 mb 0.02 in0.5 mm 0.00 in0.0 mm 0.26 in6.6 mm
08:27 PM 51.1°F10.6°C 49.8°F9.9°C 96% 16.0 mph WSW25.7 kmh WSW 29.0 mph46.7 kmh 29.43 in996.6 mb 0.01 in0.3 mm 0.00 in0.0 mm 0.26 in6.6 mm
08:30 PM 51.1°F10.6°C 50.0°F10.0°C 96% 15.0 mph WSW24.1 kmh WSW 28.0 mph45.1 kmh 29.43 in996.6 mb 0.01 in0.3 mm 0.00 in0.0 mm 0.26 in6.6 mm
08:33 PM 51.1°F10.6°C 50.0°F10.0°C 96% 15.0 mph WSW24.1 kmh WSW 28.0 mph45.1 kmh 29.43 in996.6 mb 0.00 in0.0 mm 0.00 in0.0 mm 0.26 in6.6 mm
08:36 PM 51.3°F10.7°C 50.2°F10.1°C 96% 15.0 mph WSW24.1 kmh WSW 28.0 mph45.1 kmh 29.43 in996.6 mb 0.00 in0.0 mm 0.00 in0.0 mm 0.26 in6.6 mm
08:39 PM 51.3°F10.7°C 50.2°F10.1°C 96% 14.0 mph WSW22.5 kmh WSW 27.0 mph43.5 kmh 29.42 in996.3 mb 0.00 in0.0 mm 0.00 in0.0 mm 0.26 in6.6 mm
08:42 PM 51.3°F10.7°C 50.2°F10.1°C 96% 16.0 mph WSW25.7 kmh WSW 33.0 mph53.1 kmh 29.42 in996.3 mb 0.00 in0.0 mm 0.00 in0.0 mm 0.26 in6.6 mm
08:45 PM 51.3°F10.7°C 50.2°F10.1°C 96% 15.0 mph WSW24.1 kmh WSW 33.0 mph53.1 kmh 29.43 in996.6 mb 0.00 in0.0 mm 0.00 in0.0 mm 0.26 in6.6 mm
08:48 PM 51.4°F10.8°C 50.4°F10.2°C 96% 15.0 mph WSW24.1 kmh WSW 33.0 mph53.1 kmh 29.42 in996.3 mb 0.00 in0.0 mm 0.00 in0.0 mm 0.26 in6.6 mm
08:51 PM 51.4°F10.8°C 50.4°F10.2°C 96% 15.0 mph WSW24.1 kmh WSW 33.0 mph53.1 kmh 29.42 in996.3 mb 0.00 in0.0 mm 0.00 in0.0 mm 0.26 in6.6 mm
08:54 PM 51.4°F10.8°C 50.4°F10.2°C 96% 15.0 mph WSW24.1 kmh WSW 30.0 mph48.3 kmh 29.41 in995.9 mb 0.00 in0.0 mm 0.00 in0.0 mm 0.26 in6.6 mm
08:57 PM 51.4°F10.8°C 50.4°F10.2°C 96% 16.0 mph WSW25.7 kmh WSW 36.0 mph57.9 kmh 29.41 in995.9 mb 0.00 in0.0 mm 0.00 in0.0 mm 0.26 in6.6 mm
09:00 PM 51.4°F10.8°C 50.4°F10.2°C 96% 17.0 mph WSW27.4 kmh WSW 39.0 mph62.8 kmh 29.41 in995.9 mb 0.00 in0.0 mm 0.00 in0.0 mm 0.26 in6.6 mm
09:03 PM 51.4°F10.8°C 50.4°F10.2°C 96% 17.0 mph WSW27.4 kmh WSW 39.0 mph62.8 kmh 29.41 in995.9 mb 0.00 in0.0 mm 0.00 in0.0 mm 0.26 in6.6 mm
09:06 PM 51.4°F10.8°C 50.4°F10.2°C 96% 16.0 mph WSW25.7 kmh WSW 39.0 mph62.8 kmh 29.41 in995.9 mb 0.00 in0.0 mm 0.00 in0.0 mm 0.26 in6.6 mm
09:09 PM 51.4°F10.8°C 50.4°F10.2°C 96% 16.0 mph WSW25.7 kmh WSW 39.0 mph62.8 kmh 29.40 in995.6 mb 0.00 in0.0 mm 0.00 in0.0 mm 0.26 in6.6 mm
09:12 PM 51.4°F10.8°C 50.4°F10.2°C 96% 14.0 mph WSW22.5 kmh WSW 24.0 mph38.6 kmh 29.40 in995.6 mb 0.00 in0.0 mm 0.00 in0.0 mm 0.26 in6.6 mm
09:15 PM 51.4°F10.8°C 50.4°F10.2°C 96% 14.0 mph WSW22.5 kmh WSW 27.0 mph43.5 kmh 29.40 in995.6 mb 0.00 in0.0 mm 0.00 in0.0 mm 0.26 in6.6 mm
09:18 PM 51.4°F10.8°C 50.4°F10.2°C 96% 13.0 mph WSW20.9 kmh WSW 27.0 mph43.5 kmh 29.40 in995.6 mb 0.00 in0.0 mm 0.00 in0.0 mm 0.26 in6.6 mm
09:21 PM 51.4°F10.8°C 50.2°F10.1°C 95% 15.0 mph WSW24.1 kmh WSW 28.0 mph45.1 kmh 29.40 in995.6 mb 0.00 in0.0 mm 0.00 in0.0 mm 0.26 in6.6 mm
09:24 PM 51.6°F10.9°C 50.5°F10.3°C 96% 15.0 mph WSW24.1 kmh WSW 30.0 mph48.3 kmh 29.40 in995.6 mb 0.00 in0.0 mm 0.00 in0.0 mm 0.26 in6.6 mm
09:27 PM 51.6°F10.9°C 50.2°F10.1°C 95% 16.0 mph WSW25.7 kmh WSW 30.0 mph48.3 kmh 29.40 in995.6 mb 0.00 in0.0 mm 0.00 in0.0 mm 0.26 in6.6 mm
09:30 PM 51.6°F10.9°C 50.4°F10.2°C 95% 16.0 mph WSW25.7 kmh WSW 30.0 mph48.3 kmh 29.40 in995.6 mb 0.00 in0.0 mm 0.00 in0.0 mm 0.26 in6.6 mm
09:33 PM 51.6°F10.9°C 50.4°F10.2°C 95% 15.0 mph WSW24.1 kmh WSW 30.0 mph48.3 kmh 29.40 in995.6 mb 0.01 in0.3 mm 0.20 in5.1 mm 0.27 in6.9 mm
09:36 PM 51.8°F11.0°C 50.4°F10.2°C 95% 13.0 mph WSW20.9 kmh WSW 26.0 mph41.8 kmh 29.40 in995.6 mb 0.01 in0.3 mm 0.00 in0.0 mm 0.27 in6.9 mm
09:39 PM 51.8°F11.0°C 50.4°F10.2°C 95% 13.0 mph WSW20.9 kmh WSW 26.0 mph41.8 kmh 29.40 in995.6 mb 0.01 in0.3 mm 0.00 in0.0 mm 0.27 in6.9 mm
09:42 PM 51.6°F10.9°C 50.4°F10.2°C 95% 13.0 mph W20.9 kmh W 30.0 mph48.3 kmh 29.40 in995.6 mb 0.01 in0.3 mm 0.00 in0.0 mm 0.27 in6.9 mm
09:45 PM 51.6°F10.9°C 50.0°F10.0°C 94% 15.0 mph W24.1 kmh W 30.0 mph48.3 kmh 29.40 in995.6 mb 0.01 in0.3 mm 0.00 in0.0 mm 0.27 in6.9 mm
09:48 PM 51.4°F10.8°C 49.8°F9.9°C 94% 16.0 mph W25.7 kmh W 30.0 mph48.3 kmh 29.40 in995.6 mb 0.01 in0.3 mm 0.00 in0.0 mm 0.27 in6.9 mm
09:51 PM 51.4°F10.8°C 49.8°F9.9°C 94% 16.0 mph W25.7 kmh W 30.0 mph48.3 kmh 29.40 in995.6 mb 0.01 in0.3 mm 0.00 in0.0 mm 0.27 in6.9 mm
09:54 PM 51.4°F10.8°C 49.5°F9.7°C 93% 15.0 mph W24.1 kmh W 30.0 mph48.3 kmh 29.40 in995.6 mb 0.01 in0.3 mm 0.00 in0.0 mm 0.27 in6.9 mm
09:57 PM 51.6°F10.9°C 49.3°F9.6°C 92% 13.0 mph W20.9 kmh W 30.0 mph48.3 kmh 29.40 in995.6 mb 0.01 in0.3 mm 0.00 in0.0 mm 0.27 in6.9 mm
10:00 PM 51.6°F10.9°C 49.1°F9.5°C 91% 14.0 mph W22.5 kmh W 30.0 mph48.3 kmh 29.40 in995.6 mb 0.01 in0.3 mm 0.00 in0.0 mm 0.27 in6.9 mm
10:03 PM 51.6°F10.9°C 49.1°F9.5°C 91% 14.0 mph W22.5 kmh W 30.0 mph48.3 kmh 29.40 in995.6 mb 0.01 in0.3 mm 0.00 in0.0 mm 0.27 in6.9 mm
10:06 PM 51.6°F10.9°C 48.9°F9.4°C 90% 13.0 mph W20.9 kmh W 29.0 mph46.7 kmh 29.40 in995.6 mb 0.01 in0.3 mm 0.00 in0.0 mm 0.27 in6.9 mm
10:09 PM 51.6°F10.9°C 48.6°F9.2°C 89% 13.0 mph W20.9 kmh W 26.0 mph41.8 kmh 29.40 in995.6 mb 0.01 in0.3 mm 0.00 in0.0 mm 0.27 in6.9 mm
10:12 PM 51.6°F10.9°C 48.6°F9.2°C 89% 13.0 mph W20.9 kmh W 26.0 mph41.8 kmh 29.40 in995.6 mb 0.01 in0.3 mm 0.00 in0.0 mm 0.27 in6.9 mm
10:15 PM 51.8°F11.0°C 48.7°F9.3°C 89% 13.0 mph W20.9 kmh W 25.0 mph40.2 kmh 29.40 in995.6 mb 0.01 in0.3 mm 0.00 in0.0 mm 0.27 in6.9 mm
10:18 PM 51.8°F11.0°C 48.7°F9.3°C 89% 13.0 mph WSW20.9 kmh WSW 29.0 mph46.7 kmh 29.40 in995.6 mb 0.01 in0.3 mm 0.00 in0.0 mm 0.27 in6.9 mm
10:21 PM 51.8°F11.0°C 48.7°F9.3°C 89% 14.0 mph W22.5 kmh W 29.0 mph46.7 kmh 29.40 in995.6 mb 0.01 in0.3 mm 0.00 in0.0 mm 0.27 in6.9 mm
10:24 PM 52.0°F11.1°C 48.6°F9.2°C 88% 15.0 mph W24.1 kmh W 29.0 mph46.7 kmh 29.40 in995.6 mb 0.01 in0.3 mm 0.00 in0.0 mm 0.27 in6.9 mm
10:27 PM 52.0°F11.1°C 48.6°F9.2°C 88% 15.0 mph W24.1 kmh W 28.0 mph45.1 kmh 29.39 in995.3 mb 0.01 in0.3 mm 0.00 in0.0 mm 0.27 in6.9 mm
10:30 PM 52.0°F11.1°C 48.0°F8.9°C 86% 16.0 mph W25.7 kmh W 29.0 mph46.7 kmh 29.40 in995.6 mb 0.01 in0.3 mm 0.00 in0.0 mm 0.27 in6.9 mm
10:33 PM 52.2°F11.2°C 47.8°F8.8°C 85% 16.0 mph W25.7 kmh W 33.0 mph53.1 kmh 29.40 in995.6 mb 0.00 in0.0 mm 0.00 in0.0 mm 0.27 in6.9 mm
10:36 PM 52.2°F11.2°C 47.8°F8.8°C 85% 17.0 mph W27.4 kmh W 33.0 mph53.1 kmh 29.39 in995.3 mb 0.00 in0.0 mm 0.00 in0.0 mm 0.27 in6.9 mm
10:39 PM 52.3°F11.3°C 47.7°F8.7°C 84% 16.0 mph W25.7 kmh W 33.0 mph53.1 kmh 29.40 in995.6 mb 0.00 in0.0 mm 0.00 in0.0 mm 0.27 in6.9 mm
10:42 PM 52.3°F11.3°C 47.3°F8.5°C 83% 14.0 mph W22.5 kmh W 28.0 mph45.1 kmh 29.40 in995.6 mb 0.00 in0.0 mm 0.00 in0.0 mm 0.27 in6.9 mm
10:45 PM 52.2°F11.2°C 47.1°F8.4°C 83% 14.0 mph W22.5 kmh W 28.0 mph45.1 kmh 29.40 in995.6 mb 0.00 in0.0 mm 0.00 in0.0 mm 0.27 in6.9 mm
10:48 PM 52.2°F11.2°C 46.8°F8.2°C 82% 15.0 mph W24.1 kmh W 34.0 mph54.7 kmh 29.40 in995.6 mb 0.00 in0.0 mm 0.00 in0.0 mm 0.27 in6.9 mm
10:51 PM 52.2°F11.2°C 46.4°F8.0°C 81% 15.0 mph W24.1 kmh W 34.0 mph54.7 kmh 29.39 in995.3 mb 0.00 in0.0 mm 0.00 in0.0 mm 0.27 in6.9 mm
10:54 PM 52.0°F11.1°C 46.0°F7.8°C 80% 15.0 mph W24.1 kmh W 34.0 mph54.7 kmh 29.40 in995.6 mb 0.00 in0.0 mm 0.00 in0.0 mm 0.27 in6.9 mm
10:57 PM 52.0°F11.1°C 45.9°F7.7°C 80% 15.0 mph W24.1 kmh W 34.0 mph54.7 kmh 29.40 in995.6 mb 0.00 in0.0 mm 0.00 in0.0 mm 0.27 in6.9 mm
11:00 PM 51.8°F11.0°C 45.9°F7.7°C 80% 14.0 mph W22.5 kmh W 29.0 mph46.7 kmh 29.40 in995.6 mb 0.00 in0.0 mm 0.00 in0.0 mm 0.27 in6.9 mm
11:03 PM 51.8°F11.0°C 45.9°F7.7°C 80% 13.0 mph W20.9 kmh W 27.0 mph43.5 kmh 29.40 in995.6 mb 0.00 in0.0 mm 0.00 in0.0 mm 0.27 in6.9 mm
11:06 PM 51.6°F10.9°C 46.0°F7.8°C 81% 12.0 mph W19.3 kmh W 27.0 mph43.5 kmh 29.40 in995.6 mb 0.00 in0.0 mm 0.00 in0.0 mm 0.27 in6.9 mm
11:09 PM 51.6°F10.9°C 46.0°F7.8°C 81% 12.0 mph W19.3 kmh W 27.0 mph43.5 kmh 29.40 in995.6 mb 0.00 in0.0 mm 0.00 in0.0 mm 0.27 in6.9 mm
11:12 PM 51.4°F10.8°C 45.9°F7.7°C 81% 12.0 mph W19.3 kmh W 27.0 mph43.5 kmh 29.40 in995.6 mb 0.00 in0.0 mm 0.00 in0.0 mm 0.27 in6.9 mm
11:15 PM 51.4°F10.8°C 45.5°F7.5°C 80% 14.0 mph W22.5 kmh W 27.0 mph43.5 kmh 29.40 in995.6 mb 0.00 in0.0 mm 0.00 in0.0 mm 0.27 in6.9 mm
11:18 PM 51.4°F10.8°C 45.1°F7.3°C 79% 14.0 mph W22.5 kmh W 34.0 mph54.7 kmh 29.41 in995.9 mb 0.00 in0.0 mm 0.00 in0.0 mm 0.27 in6.9 mm
11:21 PM 51.4°F10.8°C 45.1°F7.3°C 79% 15.0 mph W24.1 kmh W 34.0 mph54.7 kmh 29.41 in995.9 mb 0.01 in0.3 mm 0.20 in5.1 mm 0.28 in7.1 mm
11:24 PM 51.3°F10.7°C 45.0°F7.2°C 79% 15.0 mph W24.1 kmh W 36.0 mph57.9 kmh 29.41 in995.9 mb 0.01 in0.3 mm 0.00 in0.0 mm 0.28 in7.1 mm
11:27 PM 51.3°F10.7°C 45.0°F7.2°C 79% 16.0 mph W25.7 kmh W 36.0 mph57.9 kmh 29.41 in995.9 mb 0.01 in0.3 mm 0.00 in0.0 mm 0.28 in7.1 mm
11:30 PM 51.1°F10.6°C 44.4°F6.9°C 78% 15.0 mph W24.1 kmh W 36.0 mph57.9 kmh 29.41 in995.9 mb 0.01 in0.3 mm 0.00 in0.0 mm 0.28 in7.1 mm
11:33 PM 50.7°F10.4°C 43.9°F6.6°C 77% 16.0 mph W25.7 kmh W 36.0 mph57.9 kmh 29.41 in995.9 mb 0.01 in0.3 mm 0.00 in0.0 mm 0.28 in7.1 mm
11:36 PM 50.7°F10.4°C 43.7°F6.5°C 77% 16.0 mph W25.7 kmh W 34.0 mph54.7 kmh 29.41 in995.9 mb 0.01 in0.3 mm 0.00 in0.0 mm 0.28 in7.1 mm
11:39 PM 50.5°F10.3°C 43.3°F6.3°C 76% 16.0 mph W25.7 kmh W 34.0 mph54.7 kmh 29.41 in995.9 mb 0.01 in0.3 mm 0.00 in0.0 mm 0.28 in7.1 mm
11:42 PM 50.5°F10.3°C 43.2°F6.2°C 76% 17.0 mph W27.4 kmh W 32.0 mph51.5 kmh 29.42 in996.3 mb 0.01 in0.3 mm 0.00 in0.0 mm 0.28 in7.1 mm
11:45 PM 50.4°F10.2°C 43.0°F6.1°C 76% 17.0 mph W27.4 kmh W 32.0 mph51.5 kmh 29.42 in996.3 mb 0.01 in0.3 mm 0.00 in0.0 mm 0.28 in7.1 mm
11:48 PM 50.2°F10.1°C 43.3°F6.3°C 77% 17.0 mph W27.4 kmh W 32.0 mph51.5 kmh 29.42 in996.3 mb 0.01 in0.3 mm 0.00 in0.0 mm 0.28 in7.1 mm
11:51 PM 50.2°F10.1°C 43.2°F6.2°C 77% 15.0 mph W24.1 kmh W 30.0 mph48.3 kmh 29.43 in996.6 mb 0.01 in0.3 mm 0.00 in0.0 mm 0.28 in7.1 mm
11:54 PM 50.0°F10.0°C 43.2°F6.2°C 77% 15.0 mph W24.1 kmh W 35.0 mph56.3 kmh 29.43 in996.6 mb 0.01 in0.3 mm 0.00 in0.0 mm 0.28 in7.1 mm
11:57 PM 50.0°F10.0°C 43.2°F6.2°C 77% 15.0 mph W24.1 kmh W 35.0 mph56.3 kmh 29.43 in996.6 mb 0.01 in0.3 mm 0.00 in0.0 mm 0.28 in7.1 mm